<?xml version="1.0" encoding="UTF-8" standalone="no" ?>
<gpx xmlns="http://www.topografix.com/GPX/1/1" xmlns:xsi="http://www.w3.org/2001/XMLSchema-instance" xsi:schemaLocation="http://www.topografix.com/GPX/1/1 http://www.topografix.com/GPX/1/1/gpx.xsd" version="1.1" creator="VisuGPX - https://www.visugpx.com">
  <metadata>
    <name>17 avr. 2021 09:50:33</name>
    <desc><![CDATA[balade sympa permettant de voir Paris de haut.]]></desc>
  </metadata>
  <trk>
    <name><![CDATA[17 avr. 2021 09:50:33]]></name>
    <trkseg>
      <trkpt lat="48.79378" lon="2.26074">
        <ele>213.27</ele>
        <time>2021-04-17T07:50:33.321Z</time>
      </trkpt>
      <trkpt lat="48.7938" lon="2.26061">
        <ele>224.82</ele>
        <time>2021-04-17T07:51:05.000Z</time>
      </trkpt>
      <trkpt lat="48.79377" lon="2.26047">
        <ele>224.36</ele>
        <time>2021-04-17T07:51:19.000Z</time>
      </trkpt>
      <trkpt lat="48.79377" lon="2.26033">
        <ele>224.17</ele>
        <time>2021-04-17T07:51:29.000Z</time>
      </trkpt>
      <trkpt lat="48.79381" lon="2.2602">
        <ele>223.78</ele>
        <time>2021-04-17T07:51:36.000Z</time>
      </trkpt>
      <trkpt lat="48.79382" lon="2.26006">
        <ele>223.2</ele>
        <time>2021-04-17T07:51:44.000Z</time>
      </trkpt>
      <trkpt lat="48.79389" lon="2.25997">
        <ele>222.33</ele>
        <time>2021-04-17T07:51:52.000Z</time>
      </trkpt>
      <trkpt lat="48.79398" lon="2.25991">
        <ele>221.19</ele>
        <time>2021-04-17T07:52:04.000Z</time>
      </trkpt>
      <trkpt lat="48.79407" lon="2.25985">
        <ele>220.31</ele>
        <time>2021-04-17T07:52:15.000Z</time>
      </trkpt>
      <trkpt lat="48.79415" lon="2.25979">
        <ele>219.78</ele>
        <time>2021-04-17T07:52:23.000Z</time>
      </trkpt>
      <trkpt lat="48.79422" lon="2.2597">
        <ele>219.34</ele>
        <time>2021-04-17T07:52:32.000Z</time>
      </trkpt>
      <trkpt lat="48.79429" lon="2.25961">
        <ele>218.91</ele>
        <time>2021-04-17T07:52:40.000Z</time>
      </trkpt>
      <trkpt lat="48.79437" lon="2.25948">
        <ele>218.55</ele>
        <time>2021-04-17T07:52:46.000Z</time>
      </trkpt>
      <trkpt lat="48.79443" lon="2.25936">
        <ele>218.18</ele>
        <time>2021-04-17T07:52:53.000Z</time>
      </trkpt>
      <trkpt lat="48.79446" lon="2.25923">
        <ele>217.85</ele>
        <time>2021-04-17T07:52:59.000Z</time>
      </trkpt>
      <trkpt lat="48.79448" lon="2.25908">
        <ele>217.24</ele>
        <time>2021-04-17T07:53:09.000Z</time>
      </trkpt>
      <trkpt lat="48.79451" lon="2.25895">
        <ele>216.81</ele>
        <time>2021-04-17T07:53:16.000Z</time>
      </trkpt>
      <trkpt lat="48.79453" lon="2.25881">
        <ele>216.31</ele>
        <time>2021-04-17T07:53:25.000Z</time>
      </trkpt>
      <trkpt lat="48.79455" lon="2.25867">
        <ele>215.78</ele>
        <time>2021-04-17T07:53:37.000Z</time>
      </trkpt>
      <trkpt lat="48.79462" lon="2.25857">
        <ele>215.59</ele>
        <time>2021-04-17T07:53:43.000Z</time>
      </trkpt>
      <trkpt lat="48.79467" lon="2.25844">
        <ele>215.37</ele>
        <time>2021-04-17T07:53:50.000Z</time>
      </trkpt>
      <trkpt lat="48.79471" lon="2.2583">
        <ele>215.12</ele>
        <time>2021-04-17T07:53:58.000Z</time>
      </trkpt>
      <trkpt lat="48.79474" lon="2.25817">
        <ele>214.9</ele>
        <time>2021-04-17T07:54:05.000Z</time>
      </trkpt>
      <trkpt lat="48.79479" lon="2.25804">
        <ele>214.63</ele>
        <time>2021-04-17T07:54:14.000Z</time>
      </trkpt>
      <trkpt lat="48.79488" lon="2.25794">
        <ele>214.21</ele>
        <time>2021-04-17T07:54:31.000Z</time>
      </trkpt>
      <trkpt lat="48.79495" lon="2.25784">
        <ele>214.08</ele>
        <time>2021-04-17T07:54:37.000Z</time>
      </trkpt>
      <trkpt lat="48.79498" lon="2.25771">
        <ele>213.93</ele>
        <time>2021-04-17T07:54:45.000Z</time>
      </trkpt>
      <trkpt lat="48.79498" lon="2.25757">
        <ele>213.78</ele>
        <time>2021-04-17T07:54:53.000Z</time>
      </trkpt>
      <trkpt lat="48.79499" lon="2.25743">
        <ele>213.65</ele>
        <time>2021-04-17T07:55:04.000Z</time>
      </trkpt>
      <trkpt lat="48.79501" lon="2.25727">
        <ele>213.53</ele>
        <time>2021-04-17T07:55:15.000Z</time>
      </trkpt>
      <trkpt lat="48.79505" lon="2.25714">
        <ele>213.43</ele>
        <time>2021-04-17T07:55:28.000Z</time>
      </trkpt>
      <trkpt lat="48.7951" lon="2.25702">
        <ele>213.39</ele>
        <time>2021-04-17T07:55:38.000Z</time>
      </trkpt>
      <trkpt lat="48.79515" lon="2.2569">
        <ele>213.34</ele>
        <time>2021-04-17T07:55:48.000Z</time>
      </trkpt>
      <trkpt lat="48.7952" lon="2.25677">
        <ele>213.29</ele>
        <time>2021-04-17T07:55:56.000Z</time>
      </trkpt>
      <trkpt lat="48.79527" lon="2.25668">
        <ele>213.23</ele>
        <time>2021-04-17T07:56:06.000Z</time>
      </trkpt>
      <trkpt lat="48.79535" lon="2.25661">
        <ele>213.2</ele>
        <time>2021-04-17T07:56:16.000Z</time>
      </trkpt>
      <trkpt lat="48.79538" lon="2.25647">
        <ele>213.18</ele>
        <time>2021-04-17T07:56:26.000Z</time>
      </trkpt>
      <trkpt lat="48.79544" lon="2.25634">
        <ele>213.11</ele>
        <time>2021-04-17T07:56:41.000Z</time>
      </trkpt>
      <trkpt lat="48.79551" lon="2.25625">
        <ele>213.08</ele>
        <time>2021-04-17T07:56:48.000Z</time>
      </trkpt>
      <trkpt lat="48.7956" lon="2.25619">
        <ele>213.04</ele>
        <time>2021-04-17T07:56:54.000Z</time>
      </trkpt>
      <trkpt lat="48.7957" lon="2.2561">
        <ele>212.98</ele>
        <time>2021-04-17T07:57:03.000Z</time>
      </trkpt>
      <trkpt lat="48.79577" lon="2.25601">
        <ele>212.91</ele>
        <time>2021-04-17T07:57:11.000Z</time>
      </trkpt>
      <trkpt lat="48.79582" lon="2.2559">
        <ele>212.84</ele>
        <time>2021-04-17T07:57:19.000Z</time>
      </trkpt>
      <trkpt lat="48.7959" lon="2.25579">
        <ele>212.74</ele>
        <time>2021-04-17T07:57:32.000Z</time>
      </trkpt>
      <trkpt lat="48.79597" lon="2.25571">
        <ele>212.66</ele>
        <time>2021-04-17T07:57:43.000Z</time>
      </trkpt>
      <trkpt lat="48.79601" lon="2.25551">
        <ele>212.58</ele>
        <time>2021-04-17T07:57:51.000Z</time>
      </trkpt>
      <trkpt lat="48.79602" lon="2.25537">
        <ele>212.57</ele>
        <time>2021-04-17T07:57:54.000Z</time>
      </trkpt>
      <trkpt lat="48.79608" lon="2.25525">
        <ele>212.54</ele>
        <time>2021-04-17T07:58:02.000Z</time>
      </trkpt>
      <trkpt lat="48.79611" lon="2.25511">
        <ele>212.53</ele>
        <time>2021-04-17T07:58:09.000Z</time>
      </trkpt>
      <trkpt lat="48.79617" lon="2.25501">
        <ele>212.55</ele>
        <time>2021-04-17T07:58:16.000Z</time>
      </trkpt>
      <trkpt lat="48.79625" lon="2.25492">
        <ele>212.57</ele>
        <time>2021-04-17T07:58:25.000Z</time>
      </trkpt>
      <trkpt lat="48.79631" lon="2.2548">
        <ele>212.56</ele>
        <time>2021-04-17T07:58:35.000Z</time>
      </trkpt>
      <trkpt lat="48.79637" lon="2.25469">
        <ele>212.54</ele>
        <time>2021-04-17T07:58:42.000Z</time>
      </trkpt>
      <trkpt lat="48.79645" lon="2.25459">
        <ele>212.5</ele>
        <time>2021-04-17T07:58:52.000Z</time>
      </trkpt>
      <trkpt lat="48.79653" lon="2.25452">
        <ele>212.45</ele>
        <time>2021-04-17T07:59:04.000Z</time>
      </trkpt>
      <trkpt lat="48.79662" lon="2.25443">
        <ele>212.31</ele>
        <time>2021-04-17T07:59:15.000Z</time>
      </trkpt>
      <trkpt lat="48.79668" lon="2.25431">
        <ele>212.17</ele>
        <time>2021-04-17T07:59:23.000Z</time>
      </trkpt>
      <trkpt lat="48.79677" lon="2.25423">
        <ele>212.04</ele>
        <time>2021-04-17T07:59:30.000Z</time>
      </trkpt>
      <trkpt lat="48.79686" lon="2.25417">
        <ele>211.93</ele>
        <time>2021-04-17T07:59:36.000Z</time>
      </trkpt>
      <trkpt lat="48.79694" lon="2.2541">
        <ele>211.73</ele>
        <time>2021-04-17T07:59:48.000Z</time>
      </trkpt>
      <trkpt lat="48.79702" lon="2.25401">
        <ele>211.61</ele>
        <time>2021-04-17T07:59:55.000Z</time>
      </trkpt>
      <trkpt lat="48.7971" lon="2.25394">
        <ele>211.45</ele>
        <time>2021-04-17T08:00:05.000Z</time>
      </trkpt>
      <trkpt lat="48.79717" lon="2.25385">
        <ele>211.34</ele>
        <time>2021-04-17T08:00:13.000Z</time>
      </trkpt>
      <trkpt lat="48.79723" lon="2.25373">
        <ele>211.25</ele>
        <time>2021-04-17T08:00:19.000Z</time>
      </trkpt>
      <trkpt lat="48.79727" lon="2.25359">
        <ele>211.18</ele>
        <time>2021-04-17T08:00:24.000Z</time>
      </trkpt>
      <trkpt lat="48.79728" lon="2.25345">
        <ele>211.1</ele>
        <time>2021-04-17T08:00:30.000Z</time>
      </trkpt>
      <trkpt lat="48.7973" lon="2.2533">
        <ele>211.02</ele>
        <time>2021-04-17T08:00:37.000Z</time>
      </trkpt>
      <trkpt lat="48.79734" lon="2.25318">
        <ele>210.98</ele>
        <time>2021-04-17T08:00:48.000Z</time>
      </trkpt>
      <trkpt lat="48.79739" lon="2.25307">
        <ele>210.95</ele>
        <time>2021-04-17T08:01:02.000Z</time>
      </trkpt>
      <trkpt lat="48.79745" lon="2.25296">
        <ele>210.99</ele>
        <time>2021-04-17T08:01:24.000Z</time>
      </trkpt>
      <trkpt lat="48.79754" lon="2.2529">
        <ele>211.03</ele>
        <time>2021-04-17T08:01:37.000Z</time>
      </trkpt>
      <trkpt lat="48.79763" lon="2.25284">
        <ele>211.04</ele>
        <time>2021-04-17T08:01:46.000Z</time>
      </trkpt>
      <trkpt lat="48.79768" lon="2.25272">
        <ele>211</ele>
        <time>2021-04-17T08:01:57.000Z</time>
      </trkpt>
      <trkpt lat="48.79775" lon="2.2526">
        <ele>210.84</ele>
        <time>2021-04-17T08:02:14.000Z</time>
      </trkpt>
      <trkpt lat="48.79781" lon="2.2525">
        <ele>210.77</ele>
        <time>2021-04-17T08:02:18.000Z</time>
      </trkpt>
      <trkpt lat="48.79784" lon="2.25234">
        <ele>210.67</ele>
        <time>2021-04-17T08:02:27.000Z</time>
      </trkpt>
      <trkpt lat="48.79793" lon="2.25228">
        <ele>210.52</ele>
        <time>2021-04-17T08:02:35.000Z</time>
      </trkpt>
      <trkpt lat="48.79805" lon="2.25221">
        <ele>210.4</ele>
        <time>2021-04-17T08:02:42.000Z</time>
      </trkpt>
      <trkpt lat="48.79816" lon="2.25218">
        <ele>210.32</ele>
        <time>2021-04-17T08:02:46.000Z</time>
      </trkpt>
      <trkpt lat="48.79825" lon="2.25215">
        <ele>210.16</ele>
        <time>2021-04-17T08:02:55.000Z</time>
      </trkpt>
      <trkpt lat="48.79834" lon="2.25211">
        <ele>210.07</ele>
        <time>2021-04-17T08:03:00.000Z</time>
      </trkpt>
      <trkpt lat="48.79846" lon="2.25207">
        <ele>209.97</ele>
        <time>2021-04-17T08:03:09.000Z</time>
      </trkpt>
      <trkpt lat="48.79855" lon="2.25197">
        <ele>209.92</ele>
        <time>2021-04-17T08:03:13.000Z</time>
      </trkpt>
      <trkpt lat="48.79864" lon="2.25192">
        <ele>209.83</ele>
        <time>2021-04-17T08:03:21.000Z</time>
      </trkpt>
      <trkpt lat="48.79873" lon="2.25188">
        <ele>209.76</ele>
        <time>2021-04-17T08:03:27.000Z</time>
      </trkpt>
      <trkpt lat="48.79881" lon="2.25182">
        <ele>209.67</ele>
        <time>2021-04-17T08:03:37.000Z</time>
      </trkpt>
      <trkpt lat="48.79889" lon="2.25173">
        <ele>209.61</ele>
        <time>2021-04-17T08:03:44.000Z</time>
      </trkpt>
      <trkpt lat="48.79893" lon="2.2516">
        <ele>209.56</ele>
        <time>2021-04-17T08:03:49.000Z</time>
      </trkpt>
      <trkpt lat="48.79898" lon="2.25148">
        <ele>209.5</ele>
        <time>2021-04-17T08:03:56.000Z</time>
      </trkpt>
      <trkpt lat="48.79904" lon="2.25137">
        <ele>209.46</ele>
        <time>2021-04-17T08:04:03.000Z</time>
      </trkpt>
      <trkpt lat="48.79909" lon="2.25123">
        <ele>209.4</ele>
        <time>2021-04-17T08:04:12.000Z</time>
      </trkpt>
      <trkpt lat="48.79916" lon="2.25114">
        <ele>209.35</ele>
        <time>2021-04-17T08:04:19.000Z</time>
      </trkpt>
      <trkpt lat="48.79922" lon="2.25102">
        <ele>209.3</ele>
        <time>2021-04-17T08:04:28.000Z</time>
      </trkpt>
      <trkpt lat="48.79927" lon="2.2509">
        <ele>209.27</ele>
        <time>2021-04-17T08:04:37.000Z</time>
      </trkpt>
      <trkpt lat="48.79935" lon="2.25079">
        <ele>209.26</ele>
        <time>2021-04-17T08:04:46.000Z</time>
      </trkpt>
      <trkpt lat="48.79941" lon="2.25069">
        <ele>209.26</ele>
        <time>2021-04-17T08:04:55.000Z</time>
      </trkpt>
      <trkpt lat="48.79948" lon="2.25057">
        <ele>209.27</ele>
        <time>2021-04-17T08:05:01.000Z</time>
      </trkpt>
      <trkpt lat="48.79952" lon="2.25045">
        <ele>209.27</ele>
        <time>2021-04-17T08:05:13.000Z</time>
      </trkpt>
      <trkpt lat="48.79963" lon="2.25039">
        <ele>209.28</ele>
        <time>2021-04-17T08:05:20.000Z</time>
      </trkpt>
      <trkpt lat="48.79971" lon="2.25033">
        <ele>209.29</ele>
        <time>2021-04-17T08:05:30.000Z</time>
      </trkpt>
      <trkpt lat="48.79981" lon="2.25027">
        <ele>209.3</ele>
        <time>2021-04-17T08:05:38.000Z</time>
      </trkpt>
      <trkpt lat="48.79988" lon="2.2502">
        <ele>209.33</ele>
        <time>2021-04-17T08:05:47.000Z</time>
      </trkpt>
      <trkpt lat="48.79993" lon="2.25008">
        <ele>209.35</ele>
        <time>2021-04-17T08:05:54.000Z</time>
      </trkpt>
      <trkpt lat="48.79997" lon="2.24995">
        <ele>209.39</ele>
        <time>2021-04-17T08:06:08.000Z</time>
      </trkpt>
      <trkpt lat="48.79997" lon="2.2498">
        <ele>209.38</ele>
        <time>2021-04-17T08:06:14.000Z</time>
      </trkpt>
      <trkpt lat="48.80003" lon="2.2497">
        <ele>209.35</ele>
        <time>2021-04-17T08:06:19.999Z</time>
      </trkpt>
      <trkpt lat="48.80004" lon="2.24955">
        <ele>209.23</ele>
        <time>2021-04-17T08:06:32.999Z</time>
      </trkpt>
      <trkpt lat="48.80002" lon="2.2494">
        <ele>209.16</ele>
        <time>2021-04-17T08:06:37.999Z</time>
      </trkpt>
      <trkpt lat="48.79995" lon="2.24929">
        <ele>209.13</ele>
        <time>2021-04-17T08:06:40.999Z</time>
      </trkpt>
      <trkpt lat="48.79988" lon="2.24919">
        <ele>209.09</ele>
        <time>2021-04-17T08:06:44.999Z</time>
      </trkpt>
      <trkpt lat="48.79983" lon="2.24903">
        <ele>209.03</ele>
        <time>2021-04-17T08:06:53.999Z</time>
      </trkpt>
      <trkpt lat="48.79981" lon="2.24889">
        <ele>208.99</ele>
        <time>2021-04-17T08:06:59.999Z</time>
      </trkpt>
      <trkpt lat="48.79981" lon="2.24875">
        <ele>208.93</ele>
        <time>2021-04-17T08:07:10.999Z</time>
      </trkpt>
      <trkpt lat="48.79985" lon="2.24862">
        <ele>208.87</ele>
        <time>2021-04-17T08:07:18.999Z</time>
      </trkpt>
      <trkpt lat="48.7999" lon="2.24851">
        <ele>208.84</ele>
        <time>2021-04-17T08:07:24.999Z</time>
      </trkpt>
      <trkpt lat="48.79995" lon="2.24839">
        <ele>208.79</ele>
        <time>2021-04-17T08:07:31.999Z</time>
      </trkpt>
      <trkpt lat="48.79994" lon="2.24824">
        <ele>208.73</ele>
        <time>2021-04-17T08:07:41.999Z</time>
      </trkpt>
      <trkpt lat="48.79987" lon="2.24814">
        <ele>208.71</ele>
        <time>2021-04-17T08:07:47.999Z</time>
      </trkpt>
      <trkpt lat="48.79979" lon="2.24806">
        <ele>208.69</ele>
        <time>2021-04-17T08:07:52.999Z</time>
      </trkpt>
      <trkpt lat="48.79971" lon="2.24799">
        <ele>208.65</ele>
        <time>2021-04-17T08:08:06.999Z</time>
      </trkpt>
      <trkpt lat="48.79963" lon="2.24795">
        <ele>208.7</ele>
        <time>2021-04-17T08:08:43.999Z</time>
      </trkpt>
      <trkpt lat="48.79954" lon="2.24794">
        <ele>208.75</ele>
        <time>2021-04-17T08:08:57.999Z</time>
      </trkpt>
      <trkpt lat="48.79945" lon="2.24784">
        <ele>208.86</ele>
        <time>2021-04-17T08:09:16.999Z</time>
      </trkpt>
      <trkpt lat="48.79931" lon="2.24779">
        <ele>208.91</ele>
        <time>2021-04-17T08:09:25.999Z</time>
      </trkpt>
      <trkpt lat="48.7993" lon="2.2476">
        <ele>208.98</ele>
        <time>2021-04-17T08:09:35.999Z</time>
      </trkpt>
      <trkpt lat="48.79928" lon="2.24746">
        <ele>209.07</ele>
        <time>2021-04-17T08:09:44.999Z</time>
      </trkpt>
      <trkpt lat="48.79921" lon="2.24736">
        <ele>209.15</ele>
        <time>2021-04-17T08:09:54.999Z</time>
      </trkpt>
      <trkpt lat="48.79912" lon="2.24728">
        <ele>209.24</ele>
        <time>2021-04-17T08:10:01.999Z</time>
      </trkpt>
      <trkpt lat="48.799" lon="2.24724">
        <ele>209.32</ele>
        <time>2021-04-17T08:10:07.999Z</time>
      </trkpt>
      <trkpt lat="48.79895" lon="2.24713">
        <ele>209.37</ele>
        <time>2021-04-17T08:10:12.999Z</time>
      </trkpt>
      <trkpt lat="48.79886" lon="2.24705">
        <ele>209.41</ele>
        <time>2021-04-17T08:10:19.999Z</time>
      </trkpt>
      <trkpt lat="48.79879" lon="2.24694">
        <ele>209.46</ele>
        <time>2021-04-17T08:10:25.999Z</time>
      </trkpt>
      <trkpt lat="48.79875" lon="2.2468">
        <ele>209.54</ele>
        <time>2021-04-17T08:10:38.999Z</time>
      </trkpt>
      <trkpt lat="48.79867" lon="2.2467">
        <ele>209.58</ele>
        <time>2021-04-17T08:10:43.999Z</time>
      </trkpt>
      <trkpt lat="48.79859" lon="2.2466">
        <ele>209.69</ele>
        <time>2021-04-17T08:10:57.999Z</time>
      </trkpt>
      <trkpt lat="48.79848" lon="2.24648">
        <ele>209.77</ele>
        <time>2021-04-17T08:11:04.999Z</time>
      </trkpt>
      <trkpt lat="48.7984" lon="2.24641">
        <ele>209.81</ele>
        <time>2021-04-17T08:11:09.999Z</time>
      </trkpt>
      <trkpt lat="48.79833" lon="2.24631">
        <ele>209.86</ele>
        <time>2021-04-17T08:11:15.999Z</time>
      </trkpt>
      <trkpt lat="48.79827" lon="2.24621">
        <ele>209.95</ele>
        <time>2021-04-17T08:11:38.999Z</time>
      </trkpt>
      <trkpt lat="48.7982" lon="2.2461">
        <ele>210</ele>
        <time>2021-04-17T08:11:43.999Z</time>
      </trkpt>
      <trkpt lat="48.79817" lon="2.24597">
        <ele>210.12</ele>
        <time>2021-04-17T08:11:53.999Z</time>
      </trkpt>
      <trkpt lat="48.7981" lon="2.24587">
        <ele>210.19</ele>
        <time>2021-04-17T08:11:58.999Z</time>
      </trkpt>
      <trkpt lat="48.79802" lon="2.24578">
        <ele>210.26</ele>
        <time>2021-04-17T08:12:03.999Z</time>
      </trkpt>
      <trkpt lat="48.7979" lon="2.24571">
        <ele>210.39</ele>
        <time>2021-04-17T08:12:11.999Z</time>
      </trkpt>
      <trkpt lat="48.79786" lon="2.24559">
        <ele>210.48</ele>
        <time>2021-04-17T08:12:17.999Z</time>
      </trkpt>
      <trkpt lat="48.79784" lon="2.24544">
        <ele>210.61</ele>
        <time>2021-04-17T08:12:27.999Z</time>
      </trkpt>
      <trkpt lat="48.79778" lon="2.24532">
        <ele>210.66</ele>
        <time>2021-04-17T08:12:31.999Z</time>
      </trkpt>
      <trkpt lat="48.79771" lon="2.24522">
        <ele>210.76</ele>
        <time>2021-04-17T08:12:41.999Z</time>
      </trkpt>
      <trkpt lat="48.79765" lon="2.24508">
        <ele>210.78</ele>
        <time>2021-04-17T08:12:44.999Z</time>
      </trkpt>
      <trkpt lat="48.79756" lon="2.24501">
        <ele>210.85</ele>
        <time>2021-04-17T08:12:53.999Z</time>
      </trkpt>
      <trkpt lat="48.79753" lon="2.24483">
        <ele>210.87</ele>
        <time>2021-04-17T08:12:57.999Z</time>
      </trkpt>
      <trkpt lat="48.79744" lon="2.24475">
        <ele>210.9</ele>
        <time>2021-04-17T08:13:03.999Z</time>
      </trkpt>
      <trkpt lat="48.79739" lon="2.24462">
        <ele>211</ele>
        <time>2021-04-17T08:13:26.999Z</time>
      </trkpt>
      <trkpt lat="48.79731" lon="2.24451">
        <ele>211.08</ele>
        <time>2021-04-17T08:13:37.999Z</time>
      </trkpt>
      <trkpt lat="48.79723" lon="2.2444">
        <ele>211.13</ele>
        <time>2021-04-17T08:13:43.999Z</time>
      </trkpt>
      <trkpt lat="48.79718" lon="2.24427">
        <ele>211.19</ele>
        <time>2021-04-17T08:13:59.999Z</time>
      </trkpt>
      <trkpt lat="48.79712" lon="2.24417">
        <ele>211.23</ele>
        <time>2021-04-17T08:14:05.999Z</time>
      </trkpt>
      <trkpt lat="48.79705" lon="2.24407">
        <ele>211.22</ele>
        <time>2021-04-17T08:14:24.999Z</time>
      </trkpt>
      <trkpt lat="48.797" lon="2.24395">
        <ele>211.15</ele>
        <time>2021-04-17T08:14:41.999Z</time>
      </trkpt>
      <trkpt lat="48.79695" lon="2.24381">
        <ele>210.96</ele>
        <time>2021-04-17T08:14:58.999Z</time>
      </trkpt>
      <trkpt lat="48.79689" lon="2.24369">
        <ele>210.83</ele>
        <time>2021-04-17T08:15:08.999Z</time>
      </trkpt>
      <trkpt lat="48.79684" lon="2.24358">
        <ele>210.7</ele>
        <time>2021-04-17T08:15:18.999Z</time>
      </trkpt>
      <trkpt lat="48.7968" lon="2.24344">
        <ele>210.04</ele>
        <time>2021-04-17T08:16:18.999Z</time>
      </trkpt>
      <trkpt lat="48.79671" lon="2.24336">
        <ele>209.77</ele>
        <time>2021-04-17T08:16:34.999Z</time>
      </trkpt>
      <trkpt lat="48.79661" lon="2.24331">
        <ele>209.5</ele>
        <time>2021-04-17T08:16:48.999Z</time>
      </trkpt>
      <trkpt lat="48.79657" lon="2.24317">
        <ele>209.4</ele>
        <time>2021-04-17T08:16:52.999Z</time>
      </trkpt>
      <trkpt lat="48.79652" lon="2.24305">
        <ele>209.27</ele>
        <time>2021-04-17T08:16:57.999Z</time>
      </trkpt>
      <trkpt lat="48.7964" lon="2.24297">
        <ele>209.15</ele>
        <time>2021-04-17T08:17:05.999Z</time>
      </trkpt>
      <trkpt lat="48.79632" lon="2.24287">
        <ele>208.96</ele>
        <time>2021-04-17T08:17:16.999Z</time>
      </trkpt>
      <trkpt lat="48.79623" lon="2.24278">
        <ele>208.74</ele>
        <time>2021-04-17T08:17:23.999Z</time>
      </trkpt>
      <trkpt lat="48.79618" lon="2.24262">
        <ele>208.62</ele>
        <time>2021-04-17T08:17:27.999Z</time>
      </trkpt>
      <trkpt lat="48.79613" lon="2.24244">
        <ele>208.37</ele>
        <time>2021-04-17T08:17:36.999Z</time>
      </trkpt>
      <trkpt lat="48.79604" lon="2.24235">
        <ele>208.12</ele>
        <time>2021-04-17T08:17:46.999Z</time>
      </trkpt>
      <trkpt lat="48.79598" lon="2.24224">
        <ele>208</ele>
        <time>2021-04-17T08:17:51.999Z</time>
      </trkpt>
      <trkpt lat="48.7959" lon="2.24217">
        <ele>207.7</ele>
        <time>2021-04-17T08:18:03.999Z</time>
      </trkpt>
      <trkpt lat="48.79582" lon="2.2421">
        <ele>207.53</ele>
        <time>2021-04-17T08:18:10.999Z</time>
      </trkpt>
      <trkpt lat="48.79577" lon="2.24199">
        <ele>207.31</ele>
        <time>2021-04-17T08:18:20.999Z</time>
      </trkpt>
      <trkpt lat="48.79571" lon="2.24186">
        <ele>206.97</ele>
        <time>2021-04-17T08:18:39.999Z</time>
      </trkpt>
      <trkpt lat="48.79565" lon="2.24177">
        <ele>206.79</ele>
        <time>2021-04-17T08:18:51.999Z</time>
      </trkpt>
      <trkpt lat="48.79561" lon="2.24163">
        <ele>206.68</ele>
        <time>2021-04-17T08:19:02.999Z</time>
      </trkpt>
      <trkpt lat="48.79557" lon="2.24149">
        <ele>206.54</ele>
        <time>2021-04-17T08:19:11.999Z</time>
      </trkpt>
      <trkpt lat="48.79548" lon="2.24138">
        <ele>206.45</ele>
        <time>2021-04-17T08:19:17.999Z</time>
      </trkpt>
      <trkpt lat="48.79545" lon="2.24125">
        <ele>206.21</ele>
        <time>2021-04-17T08:19:28.999Z</time>
      </trkpt>
      <trkpt lat="48.79538" lon="2.24115">
        <ele>205.97</ele>
        <time>2021-04-17T08:19:36.999Z</time>
      </trkpt>
      <trkpt lat="48.79529" lon="2.24112">
        <ele>204.11</ele>
        <time>2021-04-17T08:20:25.999Z</time>
      </trkpt>
      <trkpt lat="48.79521" lon="2.24119">
        <ele>201.28</ele>
        <time>2021-04-17T08:21:03.999Z</time>
      </trkpt>
      <trkpt lat="48.79529" lon="2.24112">
        <ele>198.25</ele>
        <time>2021-04-17T08:22:03.999Z</time>
      </trkpt>
      <trkpt lat="48.79531" lon="2.24099">
        <ele>197.21</ele>
        <time>2021-04-17T08:22:13.999Z</time>
      </trkpt>
      <trkpt lat="48.79526" lon="2.24086">
        <ele>195.23</ele>
        <time>2021-04-17T08:22:48.999Z</time>
      </trkpt>
      <trkpt lat="48.79525" lon="2.2407">
        <ele>194.36</ele>
        <time>2021-04-17T08:22:58.999Z</time>
      </trkpt>
      <trkpt lat="48.79525" lon="2.24056">
        <ele>193.17</ele>
        <time>2021-04-17T08:23:11.999Z</time>
      </trkpt>
      <trkpt lat="48.79525" lon="2.24042">
        <ele>192.83</ele>
        <time>2021-04-17T08:23:15.999Z</time>
      </trkpt>
      <trkpt lat="48.79524" lon="2.24028">
        <ele>191.97</ele>
        <time>2021-04-17T08:23:26.999Z</time>
      </trkpt>
      <trkpt lat="48.79524" lon="2.24014">
        <ele>191.14</ele>
        <time>2021-04-17T08:23:39.999Z</time>
      </trkpt>
      <trkpt lat="48.79521" lon="2.24001">
        <ele>190.65</ele>
        <time>2021-04-17T08:23:46.999Z</time>
      </trkpt>
      <trkpt lat="48.79519" lon="2.23987">
        <ele>190.04</ele>
        <time>2021-04-17T08:23:54.999Z</time>
      </trkpt>
      <trkpt lat="48.79517" lon="2.23972">
        <ele>189.17</ele>
        <time>2021-04-17T08:24:07.999Z</time>
      </trkpt>
      <trkpt lat="48.79513" lon="2.23958">
        <ele>188.47</ele>
        <time>2021-04-17T08:24:17.999Z</time>
      </trkpt>
      <trkpt lat="48.79509" lon="2.23945">
        <ele>187.8</ele>
        <time>2021-04-17T08:24:28.999Z</time>
      </trkpt>
      <trkpt lat="48.79508" lon="2.2393">
        <ele>187.13</ele>
        <time>2021-04-17T08:24:39.999Z</time>
      </trkpt>
      <trkpt lat="48.79508" lon="2.23916">
        <ele>186.56</ele>
        <time>2021-04-17T08:24:49.999Z</time>
      </trkpt>
      <trkpt lat="48.79507" lon="2.23903">
        <ele>186.06</ele>
        <time>2021-04-17T08:24:59.999Z</time>
      </trkpt>
      <trkpt lat="48.79505" lon="2.23888">
        <ele>185.81</ele>
        <time>2021-04-17T08:25:05.999Z</time>
      </trkpt>
      <trkpt lat="48.79504" lon="2.23874">
        <ele>185.09</ele>
        <time>2021-04-17T08:25:25.999Z</time>
      </trkpt>
      <trkpt lat="48.79505" lon="2.2386">
        <ele>184.67</ele>
        <time>2021-04-17T08:25:37.000Z</time>
      </trkpt>
      <trkpt lat="48.79507" lon="2.23844">
        <ele>184.44</ele>
        <time>2021-04-17T08:25:42.000Z</time>
      </trkpt>
      <trkpt lat="48.79509" lon="2.23829">
        <ele>183.96</ele>
        <time>2021-04-17T08:25:59.000Z</time>
      </trkpt>
      <trkpt lat="48.79512" lon="2.23816">
        <ele>183.71</ele>
        <time>2021-04-17T08:26:08.000Z</time>
      </trkpt>
      <trkpt lat="48.79511" lon="2.23798">
        <ele>183.36</ele>
        <time>2021-04-17T08:26:23.000Z</time>
      </trkpt>
      <trkpt lat="48.79513" lon="2.23783">
        <ele>183.02</ele>
        <time>2021-04-17T08:26:38.000Z</time>
      </trkpt>
      <trkpt lat="48.79514" lon="2.23769">
        <ele>182.81</ele>
        <time>2021-04-17T08:26:49.000Z</time>
      </trkpt>
      <trkpt lat="48.79513" lon="2.23756">
        <ele>182.59</ele>
        <time>2021-04-17T08:26:58.000Z</time>
      </trkpt>
      <trkpt lat="48.79511" lon="2.23741">
        <ele>182.29</ele>
        <time>2021-04-17T08:27:10.000Z</time>
      </trkpt>
      <trkpt lat="48.79512" lon="2.23728">
        <ele>182.14</ele>
        <time>2021-04-17T08:27:22.000Z</time>
      </trkpt>
      <trkpt lat="48.79513" lon="2.23712">
        <ele>181.97</ele>
        <time>2021-04-17T08:27:31.000Z</time>
      </trkpt>
      <trkpt lat="48.79507" lon="2.23701">
        <ele>181.85</ele>
        <time>2021-04-17T08:27:39.000Z</time>
      </trkpt>
      <trkpt lat="48.79503" lon="2.23688">
        <ele>181.79</ele>
        <time>2021-04-17T08:27:44.000Z</time>
      </trkpt>
      <trkpt lat="48.79504" lon="2.23675">
        <ele>181.69</ele>
        <time>2021-04-17T08:27:51.000Z</time>
      </trkpt>
      <trkpt lat="48.79505" lon="2.23661">
        <ele>181.53</ele>
        <time>2021-04-17T08:28:01.000Z</time>
      </trkpt>
      <trkpt lat="48.79505" lon="2.23647">
        <ele>181.43</ele>
        <time>2021-04-17T08:28:10.000Z</time>
      </trkpt>
      <trkpt lat="48.79502" lon="2.23634">
        <ele>181.35</ele>
        <time>2021-04-17T08:28:15.000Z</time>
      </trkpt>
      <trkpt lat="48.79499" lon="2.2362">
        <ele>181.3</ele>
        <time>2021-04-17T08:28:19.000Z</time>
      </trkpt>
      <trkpt lat="48.79495" lon="2.23607">
        <ele>181.27</ele>
        <time>2021-04-17T08:28:22.000Z</time>
      </trkpt>
      <trkpt lat="48.79491" lon="2.23594">
        <ele>181.19</ele>
        <time>2021-04-17T08:28:29.000Z</time>
      </trkpt>
      <trkpt lat="48.7949" lon="2.2358">
        <ele>181.12</ele>
        <time>2021-04-17T08:28:35.000Z</time>
      </trkpt>
      <trkpt lat="48.7949" lon="2.23565">
        <ele>181.03</ele>
        <time>2021-04-17T08:28:42.000Z</time>
      </trkpt>
      <trkpt lat="48.79491" lon="2.23551">
        <ele>180.88</ele>
        <time>2021-04-17T08:28:52.000Z</time>
      </trkpt>
      <trkpt lat="48.79495" lon="2.23566">
        <ele>180.41</ele>
        <time>2021-04-17T08:30:14.000Z</time>
      </trkpt>
      <trkpt lat="48.795" lon="2.23579">
        <ele>180.2</ele>
        <time>2021-04-17T08:30:21.000Z</time>
      </trkpt>
      <trkpt lat="48.79494" lon="2.23568">
        <ele>179.16</ele>
        <time>2021-04-17T08:31:03.000Z</time>
      </trkpt>
      <trkpt lat="48.79488" lon="2.23558">
        <ele>178.95</ele>
        <time>2021-04-17T08:31:11.000Z</time>
      </trkpt>
      <trkpt lat="48.79491" lon="2.23543">
        <ele>178.47</ele>
        <time>2021-04-17T08:31:40.000Z</time>
      </trkpt>
      <trkpt lat="48.79492" lon="2.23528">
        <ele>178.35</ele>
        <time>2021-04-17T08:31:46.000Z</time>
      </trkpt>
      <trkpt lat="48.79495" lon="2.23515">
        <ele>178.19</ele>
        <time>2021-04-17T08:31:56.000Z</time>
      </trkpt>
      <trkpt lat="48.79498" lon="2.23502">
        <ele>178.02</ele>
        <time>2021-04-17T08:32:08.000Z</time>
      </trkpt>
      <trkpt lat="48.79502" lon="2.23489">
        <ele>177.88</ele>
        <time>2021-04-17T08:32:19.000Z</time>
      </trkpt>
      <trkpt lat="48.795" lon="2.23474">
        <ele>177.73</ele>
        <time>2021-04-17T08:32:27.000Z</time>
      </trkpt>
      <trkpt lat="48.79504" lon="2.2346">
        <ele>177.61</ele>
        <time>2021-04-17T08:32:33.000Z</time>
      </trkpt>
      <trkpt lat="48.79503" lon="2.23446">
        <ele>177.36</ele>
        <time>2021-04-17T08:32:46.000Z</time>
      </trkpt>
      <trkpt lat="48.79499" lon="2.23434">
        <ele>177.2</ele>
        <time>2021-04-17T08:32:56.000Z</time>
      </trkpt>
      <trkpt lat="48.79488" lon="2.23429">
        <ele>177.12</ele>
        <time>2021-04-17T08:33:01.000Z</time>
      </trkpt>
      <trkpt lat="48.79478" lon="2.23431">
        <ele>176.99</ele>
        <time>2021-04-17T08:33:10.000Z</time>
      </trkpt>
      <trkpt lat="48.79469" lon="2.23428">
        <ele>176.89</ele>
        <time>2021-04-17T08:33:17.000Z</time>
      </trkpt>
      <trkpt lat="48.7946" lon="2.23424">
        <ele>176.76</ele>
        <time>2021-04-17T08:33:26.000Z</time>
      </trkpt>
      <trkpt lat="48.79451" lon="2.23428">
        <ele>176.53</ele>
        <time>2021-04-17T08:33:40.000Z</time>
      </trkpt>
      <trkpt lat="48.79442" lon="2.23427">
        <ele>176.36</ele>
        <time>2021-04-17T08:33:50.000Z</time>
      </trkpt>
      <trkpt lat="48.79432" lon="2.23427">
        <ele>176.16</ele>
        <time>2021-04-17T08:34:01.000Z</time>
      </trkpt>
      <trkpt lat="48.79423" lon="2.23424">
        <ele>175.96</ele>
        <time>2021-04-17T08:34:11.000Z</time>
      </trkpt>
      <trkpt lat="48.79415" lon="2.23416">
        <ele>175.77</ele>
        <time>2021-04-17T08:34:21.000Z</time>
      </trkpt>
      <trkpt lat="48.79412" lon="2.23403">
        <ele>175.59</ele>
        <time>2021-04-17T08:34:30.000Z</time>
      </trkpt>
      <trkpt lat="48.79413" lon="2.23386">
        <ele>175.39</ele>
        <time>2021-04-17T08:34:39.000Z</time>
      </trkpt>
      <trkpt lat="48.79414" lon="2.23371">
        <ele>175.22</ele>
        <time>2021-04-17T08:34:47.000Z</time>
      </trkpt>
      <trkpt lat="48.79416" lon="2.23357">
        <ele>174.99</ele>
        <time>2021-04-17T08:35:01.000Z</time>
      </trkpt>
      <trkpt lat="48.79422" lon="2.23345">
        <ele>174.9</ele>
        <time>2021-04-17T08:35:10.000Z</time>
      </trkpt>
      <trkpt lat="48.79426" lon="2.23331">
        <ele>174.83</ele>
        <time>2021-04-17T08:35:20.000Z</time>
      </trkpt>
      <trkpt lat="48.79432" lon="2.23317">
        <ele>174.76</ele>
        <time>2021-04-17T08:35:32.000Z</time>
      </trkpt>
      <trkpt lat="48.7944" lon="2.23307">
        <ele>174.69</ele>
        <time>2021-04-17T08:35:41.000Z</time>
      </trkpt>
      <trkpt lat="48.79448" lon="2.23299">
        <ele>174.62</ele>
        <time>2021-04-17T08:35:47.000Z</time>
      </trkpt>
      <trkpt lat="48.79458" lon="2.23295">
        <ele>174.55</ele>
        <time>2021-04-17T08:35:52.000Z</time>
      </trkpt>
      <trkpt lat="48.79467" lon="2.23287">
        <ele>174.48</ele>
        <time>2021-04-17T08:35:58.000Z</time>
      </trkpt>
      <trkpt lat="48.79475" lon="2.23281">
        <ele>174.35</ele>
        <time>2021-04-17T08:36:07.000Z</time>
      </trkpt>
      <trkpt lat="48.79484" lon="2.23275">
        <ele>174.07</ele>
        <time>2021-04-17T08:36:28.000Z</time>
      </trkpt>
      <trkpt lat="48.79491" lon="2.23265">
        <ele>173.93</ele>
        <time>2021-04-17T08:36:39.000Z</time>
      </trkpt>
      <trkpt lat="48.795" lon="2.23259">
        <ele>173.74</ele>
        <time>2021-04-17T08:36:49.000Z</time>
      </trkpt>
      <trkpt lat="48.79509" lon="2.23251">
        <ele>173.61</ele>
        <time>2021-04-17T08:36:56.000Z</time>
      </trkpt>
      <trkpt lat="48.79518" lon="2.23251">
        <ele>173.47</ele>
        <time>2021-04-17T08:37:04.000Z</time>
      </trkpt>
      <trkpt lat="48.79528" lon="2.23253">
        <ele>173.34</ele>
        <time>2021-04-17T08:37:11.000Z</time>
      </trkpt>
      <trkpt lat="48.79537" lon="2.23245">
        <ele>173.23</ele>
        <time>2021-04-17T08:37:17.000Z</time>
      </trkpt>
      <trkpt lat="48.79538" lon="2.23231">
        <ele>172.82</ele>
        <time>2021-04-17T08:37:47.000Z</time>
      </trkpt>
      <trkpt lat="48.79539" lon="2.23216">
        <ele>172.68</ele>
        <time>2021-04-17T08:37:56.000Z</time>
      </trkpt>
      <trkpt lat="48.79541" lon="2.23202">
        <ele>172.51</ele>
        <time>2021-04-17T08:38:10.000Z</time>
      </trkpt>
      <trkpt lat="48.79546" lon="2.23188">
        <ele>172.39</ele>
        <time>2021-04-17T08:38:22.000Z</time>
      </trkpt>
      <trkpt lat="48.7955" lon="2.23174">
        <ele>172.33</ele>
        <time>2021-04-17T08:38:29.000Z</time>
      </trkpt>
      <trkpt lat="48.79553" lon="2.23161">
        <ele>172.29</ele>
        <time>2021-04-17T08:38:37.000Z</time>
      </trkpt>
      <trkpt lat="48.79557" lon="2.23148">
        <ele>172.25</ele>
        <time>2021-04-17T08:38:48.000Z</time>
      </trkpt>
      <trkpt lat="48.7956" lon="2.23133">
        <ele>172.23</ele>
        <time>2021-04-17T08:39:02.000Z</time>
      </trkpt>
      <trkpt lat="48.79559" lon="2.2312">
        <ele>172.24</ele>
        <time>2021-04-17T08:39:14.000Z</time>
      </trkpt>
      <trkpt lat="48.79561" lon="2.23106">
        <ele>172.31</ele>
        <time>2021-04-17T08:39:26.000Z</time>
      </trkpt>
      <trkpt lat="48.79566" lon="2.23094">
        <ele>172.38</ele>
        <time>2021-04-17T08:39:36.000Z</time>
      </trkpt>
      <trkpt lat="48.79572" lon="2.23081">
        <ele>172.48</ele>
        <time>2021-04-17T08:39:47.000Z</time>
      </trkpt>
      <trkpt lat="48.79579" lon="2.2307">
        <ele>172.89</ele>
        <time>2021-04-17T08:40:26.000Z</time>
      </trkpt>
      <trkpt lat="48.79582" lon="2.23057">
        <ele>173.13</ele>
        <time>2021-04-17T08:40:39.000Z</time>
      </trkpt>
      <trkpt lat="48.79582" lon="2.23043">
        <ele>173.48</ele>
        <time>2021-04-17T08:40:50.000Z</time>
      </trkpt>
      <trkpt lat="48.7959" lon="2.23033">
        <ele>173.82</ele>
        <time>2021-04-17T08:41:02.000Z</time>
      </trkpt>
      <trkpt lat="48.79596" lon="2.23022">
        <ele>174.08</ele>
        <time>2021-04-17T08:41:19.000Z</time>
      </trkpt>
      <trkpt lat="48.79599" lon="2.23006">
        <ele>174.07</ele>
        <time>2021-04-17T08:41:39.000Z</time>
      </trkpt>
      <trkpt lat="48.79607" lon="2.22995">
        <ele>173.96</ele>
        <time>2021-04-17T08:41:52.000Z</time>
      </trkpt>
      <trkpt lat="48.7961" lon="2.22982">
        <ele>173.88</ele>
        <time>2021-04-17T08:42:00.000Z</time>
      </trkpt>
      <trkpt lat="48.79607" lon="2.22968">
        <ele>173.8</ele>
        <time>2021-04-17T08:42:06.000Z</time>
      </trkpt>
      <trkpt lat="48.7961" lon="2.22954">
        <ele>173.62</ele>
        <time>2021-04-17T08:42:20.000Z</time>
      </trkpt>
      <trkpt lat="48.79611" lon="2.2294">
        <ele>173.54</ele>
        <time>2021-04-17T08:42:28.000Z</time>
      </trkpt>
      <trkpt lat="48.79616" lon="2.22927">
        <ele>173.41</ele>
        <time>2021-04-17T08:42:37.000Z</time>
      </trkpt>
      <trkpt lat="48.79624" lon="2.22917">
        <ele>173.25</ele>
        <time>2021-04-17T08:42:47.000Z</time>
      </trkpt>
      <trkpt lat="48.79621" lon="2.22902">
        <ele>173.11</ele>
        <time>2021-04-17T08:42:58.000Z</time>
      </trkpt>
      <trkpt lat="48.79628" lon="2.22894">
        <ele>173.04</ele>
        <time>2021-04-17T08:43:05.000Z</time>
      </trkpt>
      <trkpt lat="48.79634" lon="2.22882">
        <ele>172.87</ele>
        <time>2021-04-17T08:43:16.000Z</time>
      </trkpt>
      <trkpt lat="48.79635" lon="2.22868">
        <ele>172.77</ele>
        <time>2021-04-17T08:43:22.000Z</time>
      </trkpt>
      <trkpt lat="48.79636" lon="2.22853">
        <ele>172.65</ele>
        <time>2021-04-17T08:43:30.000Z</time>
      </trkpt>
      <trkpt lat="48.7964" lon="2.2284">
        <ele>172.61</ele>
        <time>2021-04-17T08:43:35.000Z</time>
      </trkpt>
      <trkpt lat="48.79642" lon="2.22826">
        <ele>172.56</ele>
        <time>2021-04-17T08:43:44.000Z</time>
      </trkpt>
      <trkpt lat="48.79643" lon="2.22813">
        <ele>172.51</ele>
        <time>2021-04-17T08:43:55.000Z</time>
      </trkpt>
      <trkpt lat="48.79645" lon="2.22798">
        <ele>172.48</ele>
        <time>2021-04-17T08:44:05.000Z</time>
      </trkpt>
      <trkpt lat="48.79648" lon="2.22784">
        <ele>172.45</ele>
        <time>2021-04-17T08:44:11.000Z</time>
      </trkpt>
      <trkpt lat="48.79652" lon="2.22771">
        <ele>172.44</ele>
        <time>2021-04-17T08:44:19.000Z</time>
      </trkpt>
      <trkpt lat="48.79654" lon="2.22757">
        <ele>172.46</ele>
        <time>2021-04-17T08:44:25.000Z</time>
      </trkpt>
      <trkpt lat="48.79654" lon="2.22743">
        <ele>173.06</ele>
        <time>2021-04-17T08:45:39.999Z</time>
      </trkpt>
      <trkpt lat="48.79662" lon="2.22751">
        <ele>173.29</ele>
        <time>2021-04-17T08:46:29.999Z</time>
      </trkpt>
      <trkpt lat="48.7967" lon="2.22757">
        <ele>173.18</ele>
        <time>2021-04-17T08:46:39.999Z</time>
      </trkpt>
      <trkpt lat="48.79679" lon="2.2276">
        <ele>173.02</ele>
        <time>2021-04-17T08:46:52.999Z</time>
      </trkpt>
      <trkpt lat="48.79688" lon="2.2276">
        <ele>172.92</ele>
        <time>2021-04-17T08:46:59.999Z</time>
      </trkpt>
      <trkpt lat="48.79699" lon="2.22762">
        <ele>172.77</ele>
        <time>2021-04-17T08:47:09.999Z</time>
      </trkpt>
      <trkpt lat="48.79708" lon="2.22762">
        <ele>172.6</ele>
        <time>2021-04-17T08:47:20.999Z</time>
      </trkpt>
      <trkpt lat="48.79718" lon="2.22768">
        <ele>172.43</ele>
        <time>2021-04-17T08:47:32.999Z</time>
      </trkpt>
      <trkpt lat="48.79729" lon="2.2276">
        <ele>172.27</ele>
        <time>2021-04-17T08:47:46.999Z</time>
      </trkpt>
      <trkpt lat="48.79736" lon="2.22752">
        <ele>172.21</ele>
        <time>2021-04-17T08:47:50.999Z</time>
      </trkpt>
      <trkpt lat="48.79746" lon="2.22753">
        <ele>172.09</ele>
        <time>2021-04-17T08:47:59.999Z</time>
      </trkpt>
      <trkpt lat="48.79755" lon="2.22748">
        <ele>171.98</ele>
        <time>2021-04-17T08:48:06.999Z</time>
      </trkpt>
      <trkpt lat="48.79753" lon="2.22733">
        <ele>171.73</ele>
        <time>2021-04-17T08:48:22.999Z</time>
      </trkpt>
      <trkpt lat="48.79755" lon="2.22718">
        <ele>171.61</ele>
        <time>2021-04-17T08:48:29.999Z</time>
      </trkpt>
      <trkpt lat="48.79757" lon="2.22731">
        <ele>171.36</ele>
        <time>2021-04-17T08:49:45.999Z</time>
      </trkpt>
      <trkpt lat="48.79758" lon="2.22717">
        <ele>170.65</ele>
        <time>2021-04-17T08:51:16.999Z</time>
      </trkpt>
      <trkpt lat="48.79753" lon="2.22729">
        <ele>170.4</ele>
        <time>2021-04-17T08:51:28.999Z</time>
      </trkpt>
      <trkpt lat="48.79748" lon="2.22742">
        <ele>170.28</ele>
        <time>2021-04-17T08:51:35.999Z</time>
      </trkpt>
      <trkpt lat="48.79752" lon="2.22756">
        <ele>170.19</ele>
        <time>2021-04-17T08:51:45.999Z</time>
      </trkpt>
      <trkpt lat="48.79751" lon="2.22742">
        <ele>170.18</ele>
        <time>2021-04-17T08:52:14.999Z</time>
      </trkpt>
      <trkpt lat="48.79754" lon="2.22727">
        <ele>170.18</ele>
        <time>2021-04-17T08:52:21.999Z</time>
      </trkpt>
      <trkpt lat="48.79761" lon="2.22716">
        <ele>170.19</ele>
        <time>2021-04-17T08:52:29.999Z</time>
      </trkpt>
      <trkpt lat="48.79766" lon="2.22704">
        <ele>170.21</ele>
        <time>2021-04-17T08:52:36.999Z</time>
      </trkpt>
      <trkpt lat="48.79769" lon="2.22691">
        <ele>170.24</ele>
        <time>2021-04-17T08:52:46.999Z</time>
      </trkpt>
      <trkpt lat="48.79773" lon="2.22677">
        <ele>170.23</ele>
        <time>2021-04-17T08:52:57.999Z</time>
      </trkpt>
      <trkpt lat="48.79774" lon="2.22662">
        <ele>170.21</ele>
        <time>2021-04-17T08:53:07.999Z</time>
      </trkpt>
      <trkpt lat="48.79773" lon="2.22648">
        <ele>170.21</ele>
        <time>2021-04-17T08:53:14.999Z</time>
      </trkpt>
      <trkpt lat="48.79776" lon="2.22633">
        <ele>170.21</ele>
        <time>2021-04-17T08:53:22.999Z</time>
      </trkpt>
      <trkpt lat="48.79777" lon="2.22619">
        <ele>170.23</ele>
        <time>2021-04-17T08:53:31.999Z</time>
      </trkpt>
      <trkpt lat="48.79778" lon="2.22605">
        <ele>170.24</ele>
        <time>2021-04-17T08:53:39.999Z</time>
      </trkpt>
      <trkpt lat="48.79776" lon="2.22591">
        <ele>170.25</ele>
        <time>2021-04-17T08:53:57.999Z</time>
      </trkpt>
      <trkpt lat="48.79775" lon="2.22576">
        <ele>170.23</ele>
        <time>2021-04-17T08:54:05.999Z</time>
      </trkpt>
      <trkpt lat="48.79778" lon="2.22559">
        <ele>170.19</ele>
        <time>2021-04-17T08:54:12.999Z</time>
      </trkpt>
      <trkpt lat="48.79778" lon="2.22545">
        <ele>170.12</ele>
        <time>2021-04-17T08:54:22.999Z</time>
      </trkpt>
      <trkpt lat="48.79782" lon="2.22532">
        <ele>170.06</ele>
        <time>2021-04-17T08:54:35.999Z</time>
      </trkpt>
      <trkpt lat="48.79782" lon="2.22518">
        <ele>170.05</ele>
        <time>2021-04-17T08:54:47.999Z</time>
      </trkpt>
      <trkpt lat="48.79785" lon="2.22505">
        <ele>170.05</ele>
        <time>2021-04-17T08:54:50.999Z</time>
      </trkpt>
      <trkpt lat="48.79783" lon="2.22492">
        <ele>170.07</ele>
        <time>2021-04-17T08:55:01.999Z</time>
      </trkpt>
      <trkpt lat="48.79775" lon="2.22483">
        <ele>170.1</ele>
        <time>2021-04-17T08:55:21.999Z</time>
      </trkpt>
      <trkpt lat="48.79771" lon="2.22468">
        <ele>170.12</ele>
        <time>2021-04-17T08:55:25.999Z</time>
      </trkpt>
      <trkpt lat="48.7977" lon="2.22453">
        <ele>170.18</ele>
        <time>2021-04-17T08:55:35.999Z</time>
      </trkpt>
      <trkpt lat="48.79774" lon="2.2244">
        <ele>170.22</ele>
        <time>2021-04-17T08:55:48.999Z</time>
      </trkpt>
      <trkpt lat="48.79778" lon="2.22427">
        <ele>170.22</ele>
        <time>2021-04-17T08:55:57.999Z</time>
      </trkpt>
      <trkpt lat="48.79778" lon="2.22413">
        <ele>170.28</ele>
        <time>2021-04-17T08:56:10.999Z</time>
      </trkpt>
      <trkpt lat="48.79777" lon="2.22397">
        <ele>170.53</ele>
        <time>2021-04-17T08:56:37.999Z</time>
      </trkpt>
      <trkpt lat="48.79772" lon="2.22383">
        <ele>170.82</ele>
        <time>2021-04-17T08:56:54.999Z</time>
      </trkpt>
      <trkpt lat="48.79769" lon="2.22368">
        <ele>170.99</ele>
        <time>2021-04-17T08:57:05.999Z</time>
      </trkpt>
      <trkpt lat="48.79762" lon="2.22359">
        <ele>171.24</ele>
        <time>2021-04-17T08:57:12.999Z</time>
      </trkpt>
      <trkpt lat="48.79754" lon="2.22352">
        <ele>171.73</ele>
        <time>2021-04-17T08:57:25.999Z</time>
      </trkpt>
      <trkpt lat="48.79748" lon="2.22342">
        <ele>172.1</ele>
        <time>2021-04-17T08:57:38.999Z</time>
      </trkpt>
      <trkpt lat="48.79746" lon="2.22327">
        <ele>172.42</ele>
        <time>2021-04-17T08:57:45.999Z</time>
      </trkpt>
      <trkpt lat="48.79742" lon="2.22314">
        <ele>172.95</ele>
        <time>2021-04-17T08:57:58.999Z</time>
      </trkpt>
      <trkpt lat="48.79737" lon="2.22302">
        <ele>173.35</ele>
        <time>2021-04-17T08:58:08.999Z</time>
      </trkpt>
      <trkpt lat="48.79734" lon="2.22287">
        <ele>173.75</ele>
        <time>2021-04-17T08:58:18.999Z</time>
      </trkpt>
      <trkpt lat="48.79734" lon="2.22273">
        <ele>174.06</ele>
        <time>2021-04-17T08:58:25.999Z</time>
      </trkpt>
      <trkpt lat="48.79738" lon="2.22259">
        <ele>174.66</ele>
        <time>2021-04-17T08:58:39.999Z</time>
      </trkpt>
      <trkpt lat="48.79736" lon="2.22245">
        <ele>175.45</ele>
        <time>2021-04-17T08:58:57.999Z</time>
      </trkpt>
      <trkpt lat="48.79729" lon="2.22237">
        <ele>176.12</ele>
        <time>2021-04-17T08:59:12.999Z</time>
      </trkpt>
      <trkpt lat="48.79718" lon="2.22232">
        <ele>176.45</ele>
        <time>2021-04-17T08:59:18.999Z</time>
      </trkpt>
      <trkpt lat="48.79711" lon="2.22222">
        <ele>177</ele>
        <time>2021-04-17T08:59:28.999Z</time>
      </trkpt>
      <trkpt lat="48.79708" lon="2.22209">
        <ele>177.82</ele>
        <time>2021-04-17T08:59:47.999Z</time>
      </trkpt>
      <trkpt lat="48.797" lon="2.22201">
        <ele>179.19</ele>
        <time>2021-04-17T09:00:30.999Z</time>
      </trkpt>
      <trkpt lat="48.79701" lon="2.22187">
        <ele>179.46</ele>
        <time>2021-04-17T09:00:38.999Z</time>
      </trkpt>
      <trkpt lat="48.79707" lon="2.22174">
        <ele>179.8</ele>
        <time>2021-04-17T09:00:47.999Z</time>
      </trkpt>
      <trkpt lat="48.79712" lon="2.22162">
        <ele>180.23</ele>
        <time>2021-04-17T09:00:59.999Z</time>
      </trkpt>
      <trkpt lat="48.79714" lon="2.22148">
        <ele>180.68</ele>
        <time>2021-04-17T09:01:11.999Z</time>
      </trkpt>
      <trkpt lat="48.79716" lon="2.22134">
        <ele>181.29</ele>
        <time>2021-04-17T09:01:22.999Z</time>
      </trkpt>
      <trkpt lat="48.79719" lon="2.22121">
        <ele>182.08</ele>
        <time>2021-04-17T09:01:32.999Z</time>
      </trkpt>
      <trkpt lat="48.79723" lon="2.22108">
        <ele>182.87</ele>
        <time>2021-04-17T09:01:41.999Z</time>
      </trkpt>
      <trkpt lat="48.79729" lon="2.22096">
        <ele>183.66</ele>
        <time>2021-04-17T09:01:50.999Z</time>
      </trkpt>
      <trkpt lat="48.79732" lon="2.22083">
        <ele>184.52</ele>
        <time>2021-04-17T09:02:00.999Z</time>
      </trkpt>
      <trkpt lat="48.79735" lon="2.2207">
        <ele>185.27</ele>
        <time>2021-04-17T09:02:09.999Z</time>
      </trkpt>
      <trkpt lat="48.79742" lon="2.22059">
        <ele>186.07</ele>
        <time>2021-04-17T09:02:19.999Z</time>
      </trkpt>
      <trkpt lat="48.79748" lon="2.22048">
        <ele>186.68</ele>
        <time>2021-04-17T09:02:27.999Z</time>
      </trkpt>
      <trkpt lat="48.79749" lon="2.22032">
        <ele>188.23</ele>
        <time>2021-04-17T09:02:55.999Z</time>
      </trkpt>
      <trkpt lat="48.79754" lon="2.2202">
        <ele>189.82</ele>
        <time>2021-04-17T09:03:14.000Z</time>
      </trkpt>
      <trkpt lat="48.79758" lon="2.22007">
        <ele>190.34</ele>
        <time>2021-04-17T09:03:21.000Z</time>
      </trkpt>
      <trkpt lat="48.79763" lon="2.21995">
        <ele>190.91</ele>
        <time>2021-04-17T09:03:30.000Z</time>
      </trkpt>
      <trkpt lat="48.79768" lon="2.21982">
        <ele>191.32</ele>
        <time>2021-04-17T09:03:37.000Z</time>
      </trkpt>
      <trkpt lat="48.7977" lon="2.21969">
        <ele>191.62</ele>
        <time>2021-04-17T09:03:43.000Z</time>
      </trkpt>
      <trkpt lat="48.79776" lon="2.21957">
        <ele>192.02</ele>
        <time>2021-04-17T09:03:52.000Z</time>
      </trkpt>
      <trkpt lat="48.79783" lon="2.21948">
        <ele>192.61</ele>
        <time>2021-04-17T09:04:08.000Z</time>
      </trkpt>
      <trkpt lat="48.79786" lon="2.21934">
        <ele>193.12</ele>
        <time>2021-04-17T09:04:20.000Z</time>
      </trkpt>
      <trkpt lat="48.79787" lon="2.21921">
        <ele>193.72</ele>
        <time>2021-04-17T09:04:33.000Z</time>
      </trkpt>
      <trkpt lat="48.79792" lon="2.21908">
        <ele>194.5</ele>
        <time>2021-04-17T09:04:50.000Z</time>
      </trkpt>
      <trkpt lat="48.79792" lon="2.21894">
        <ele>194.78</ele>
        <time>2021-04-17T09:05:01.000Z</time>
      </trkpt>
      <trkpt lat="48.79797" lon="2.21882">
        <ele>194.86</ele>
        <time>2021-04-17T09:05:05.000Z</time>
      </trkpt>
      <trkpt lat="48.79802" lon="2.21867">
        <ele>194.94</ele>
        <time>2021-04-17T09:05:12.000Z</time>
      </trkpt>
      <trkpt lat="48.79802" lon="2.21851">
        <ele>194.59</ele>
        <time>2021-04-17T09:05:51.000Z</time>
      </trkpt>
      <trkpt lat="48.798" lon="2.21836">
        <ele>194.13</ele>
        <time>2021-04-17T09:06:05.000Z</time>
      </trkpt>
      <trkpt lat="48.79804" lon="2.21823">
        <ele>193.95</ele>
        <time>2021-04-17T09:06:13.000Z</time>
      </trkpt>
      <trkpt lat="48.79806" lon="2.21809">
        <ele>193.87</ele>
        <time>2021-04-17T09:06:21.000Z</time>
      </trkpt>
      <trkpt lat="48.79806" lon="2.21795">
        <ele>193.8</ele>
        <time>2021-04-17T09:06:30.000Z</time>
      </trkpt>
      <trkpt lat="48.7981" lon="2.21782">
        <ele>193.85</ele>
        <time>2021-04-17T09:06:39.000Z</time>
      </trkpt>
      <trkpt lat="48.79812" lon="2.21769">
        <ele>194.01</ele>
        <time>2021-04-17T09:06:48.000Z</time>
      </trkpt>
      <trkpt lat="48.79811" lon="2.21755">
        <ele>194.28</ele>
        <time>2021-04-17T09:06:56.000Z</time>
      </trkpt>
      <trkpt lat="48.79815" lon="2.21741">
        <ele>194.7</ele>
        <time>2021-04-17T09:07:07.000Z</time>
      </trkpt>
      <trkpt lat="48.79816" lon="2.21727">
        <ele>194.91</ele>
        <time>2021-04-17T09:07:13.000Z</time>
      </trkpt>
      <trkpt lat="48.79819" lon="2.21714">
        <ele>195.35</ele>
        <time>2021-04-17T09:07:22.000Z</time>
      </trkpt>
      <trkpt lat="48.7982" lon="2.21699">
        <ele>195.82</ele>
        <time>2021-04-17T09:07:31.000Z</time>
      </trkpt>
      <trkpt lat="48.79818" lon="2.21685">
        <ele>196.34</ele>
        <time>2021-04-17T09:07:41.000Z</time>
      </trkpt>
      <trkpt lat="48.79814" lon="2.21662">
        <ele>196.5</ele>
        <time>2021-04-17T09:07:44.000Z</time>
      </trkpt>
      <trkpt lat="48.79807" lon="2.21648">
        <ele>196.54</ele>
        <time>2021-04-17T09:07:45.000Z</time>
      </trkpt>
      <trkpt lat="48.79794" lon="2.21636">
        <ele>196.61</ele>
        <time>2021-04-17T09:07:51.000Z</time>
      </trkpt>
      <trkpt lat="48.79801" lon="2.21626">
        <ele>196.72</ele>
        <time>2021-04-17T09:08:00.000Z</time>
      </trkpt>
      <trkpt lat="48.79806" lon="2.21638">
        <ele>196.92</ele>
        <time>2021-04-17T09:08:08.000Z</time>
      </trkpt>
      <trkpt lat="48.79816" lon="2.2164">
        <ele>197.24</ele>
        <time>2021-04-17T09:08:14.000Z</time>
      </trkpt>
      <trkpt lat="48.79821" lon="2.21628">
        <ele>198.57</ele>
        <time>2021-04-17T09:08:33.000Z</time>
      </trkpt>
      <trkpt lat="48.79825" lon="2.21616">
        <ele>199.13</ele>
        <time>2021-04-17T09:08:39.000Z</time>
      </trkpt>
      <trkpt lat="48.79826" lon="2.21601">
        <ele>199.74</ele>
        <time>2021-04-17T09:08:46.000Z</time>
      </trkpt>
      <trkpt lat="48.79825" lon="2.21587">
        <ele>200.52</ele>
        <time>2021-04-17T09:08:55.000Z</time>
      </trkpt>
      <trkpt lat="48.79831" lon="2.21577">
        <ele>201.31</ele>
        <time>2021-04-17T09:09:05.000Z</time>
      </trkpt>
      <trkpt lat="48.79836" lon="2.21565">
        <ele>201.85</ele>
        <time>2021-04-17T09:09:13.000Z</time>
      </trkpt>
      <trkpt lat="48.79842" lon="2.21553">
        <ele>202.34</ele>
        <time>2021-04-17T09:09:21.000Z</time>
      </trkpt>
      <trkpt lat="48.79847" lon="2.21539">
        <ele>203.01</ele>
        <time>2021-04-17T09:09:31.000Z</time>
      </trkpt>
      <trkpt lat="48.79849" lon="2.21526">
        <ele>203.88</ele>
        <time>2021-04-17T09:09:43.000Z</time>
      </trkpt>
      <trkpt lat="48.79853" lon="2.21513">
        <ele>204.62</ele>
        <time>2021-04-17T09:09:54.000Z</time>
      </trkpt>
      <trkpt lat="48.79861" lon="2.21506">
        <ele>205.4</ele>
        <time>2021-04-17T09:10:05.000Z</time>
      </trkpt>
      <trkpt lat="48.79867" lon="2.21494">
        <ele>205.73</ele>
        <time>2021-04-17T09:10:11.000Z</time>
      </trkpt>
      <trkpt lat="48.79869" lon="2.2148">
        <ele>206.05</ele>
        <time>2021-04-17T09:10:19.000Z</time>
      </trkpt>
      <trkpt lat="48.79863" lon="2.21469">
        <ele>206.6</ele>
        <time>2021-04-17T09:10:33.000Z</time>
      </trkpt>
      <trkpt lat="48.79854" lon="2.2147">
        <ele>206.26</ele>
        <time>2021-04-17T09:11:23.000Z</time>
      </trkpt>
      <trkpt lat="48.79846" lon="2.21461">
        <ele>205.97</ele>
        <time>2021-04-17T09:11:30.000Z</time>
      </trkpt>
      <trkpt lat="48.79836" lon="2.21457">
        <ele>205.46</ele>
        <time>2021-04-17T09:11:41.000Z</time>
      </trkpt>
      <trkpt lat="48.79834" lon="2.21443">
        <ele>203.97</ele>
        <time>2021-04-17T09:12:00.000Z</time>
      </trkpt>
      <trkpt lat="48.79826" lon="2.21434">
        <ele>203.7</ele>
        <time>2021-04-17T09:12:15.000Z</time>
      </trkpt>
      <trkpt lat="48.79816" lon="2.21428">
        <ele>203.52</ele>
        <time>2021-04-17T09:12:22.000Z</time>
      </trkpt>
      <trkpt lat="48.79807" lon="2.21422">
        <ele>203.36</ele>
        <time>2021-04-17T09:12:28.000Z</time>
      </trkpt>
      <trkpt lat="48.798" lon="2.21411">
        <ele>203.25</ele>
        <time>2021-04-17T09:12:34.000Z</time>
      </trkpt>
      <trkpt lat="48.7979" lon="2.21407">
        <ele>203.11</ele>
        <time>2021-04-17T09:12:49.000Z</time>
      </trkpt>
      <trkpt lat="48.79785" lon="2.21395">
        <ele>202.89</ele>
        <time>2021-04-17T09:13:00.000Z</time>
      </trkpt>
      <trkpt lat="48.79776" lon="2.21389">
        <ele>202.79</ele>
        <time>2021-04-17T09:13:09.000Z</time>
      </trkpt>
      <trkpt lat="48.79768" lon="2.21382">
        <ele>202.55</ele>
        <time>2021-04-17T09:13:31.000Z</time>
      </trkpt>
      <trkpt lat="48.79758" lon="2.21382">
        <ele>202.32</ele>
        <time>2021-04-17T09:13:36.000Z</time>
      </trkpt>
      <trkpt lat="48.79747" lon="2.21372">
        <ele>202.18</ele>
        <time>2021-04-17T09:13:39.000Z</time>
      </trkpt>
      <trkpt lat="48.79738" lon="2.21369">
        <ele>202.06</ele>
        <time>2021-04-17T09:13:42.000Z</time>
      </trkpt>
      <trkpt lat="48.7973" lon="2.2136">
        <ele>201.85</ele>
        <time>2021-04-17T09:13:49.000Z</time>
      </trkpt>
      <trkpt lat="48.79723" lon="2.21352">
        <ele>201.57</ele>
        <time>2021-04-17T09:14:05.000Z</time>
      </trkpt>
      <trkpt lat="48.79716" lon="2.21342">
        <ele>201.3</ele>
        <time>2021-04-17T09:14:11.000Z</time>
      </trkpt>
      <trkpt lat="48.79711" lon="2.2133">
        <ele>201.09</ele>
        <time>2021-04-17T09:14:20.000Z</time>
      </trkpt>
      <trkpt lat="48.79703" lon="2.2132">
        <ele>200.92</ele>
        <time>2021-04-17T09:14:34.000Z</time>
      </trkpt>
      <trkpt lat="48.79698" lon="2.21309">
        <ele>200.87</ele>
        <time>2021-04-17T09:14:37.000Z</time>
      </trkpt>
      <trkpt lat="48.79692" lon="2.21299">
        <ele>200.76</ele>
        <time>2021-04-17T09:14:49.000Z</time>
      </trkpt>
      <trkpt lat="48.79686" lon="2.21286">
        <ele>200.79</ele>
        <time>2021-04-17T09:15:03.000Z</time>
      </trkpt>
      <trkpt lat="48.79676" lon="2.21283">
        <ele>200.82</ele>
        <time>2021-04-17T09:15:09.000Z</time>
      </trkpt>
      <trkpt lat="48.79666" lon="2.21281">
        <ele>200.83</ele>
        <time>2021-04-17T09:15:16.000Z</time>
      </trkpt>
      <trkpt lat="48.79659" lon="2.21269">
        <ele>200.62</ele>
        <time>2021-04-17T09:15:26.000Z</time>
      </trkpt>
      <trkpt lat="48.7965" lon="2.21266">
        <ele>200.36</ele>
        <time>2021-04-17T09:15:31.000Z</time>
      </trkpt>
      <trkpt lat="48.79642" lon="2.21257">
        <ele>199.45</ele>
        <time>2021-04-17T09:15:49.000Z</time>
      </trkpt>
      <trkpt lat="48.79634" lon="2.21244">
        <ele>198.81</ele>
        <time>2021-04-17T09:15:57.000Z</time>
      </trkpt>
      <trkpt lat="48.79626" lon="2.21236">
        <ele>198.52</ele>
        <time>2021-04-17T09:16:01.000Z</time>
      </trkpt>
      <trkpt lat="48.79617" lon="2.2123">
        <ele>198.14</ele>
        <time>2021-04-17T09:16:07.000Z</time>
      </trkpt>
      <trkpt lat="48.79607" lon="2.21227">
        <ele>197.83</ele>
        <time>2021-04-17T09:16:12.000Z</time>
      </trkpt>
      <trkpt lat="48.79598" lon="2.2122">
        <ele>197.1</ele>
        <time>2021-04-17T09:16:21.000Z</time>
      </trkpt>
      <trkpt lat="48.7959" lon="2.2121">
        <ele>195.15</ele>
        <time>2021-04-17T09:16:38.000Z</time>
      </trkpt>
      <trkpt lat="48.79582" lon="2.21199">
        <ele>193.64</ele>
        <time>2021-04-17T09:16:51.000Z</time>
      </trkpt>
      <trkpt lat="48.79573" lon="2.21188">
        <ele>192.83</ele>
        <time>2021-04-17T09:16:57.000Z</time>
      </trkpt>
      <trkpt lat="48.79569" lon="2.21176">
        <ele>191.92</ele>
        <time>2021-04-17T09:17:05.000Z</time>
      </trkpt>
      <trkpt lat="48.7956" lon="2.21167">
        <ele>191</ele>
        <time>2021-04-17T09:17:17.000Z</time>
      </trkpt>
      <trkpt lat="48.79552" lon="2.21162">
        <ele>190.28</ele>
        <time>2021-04-17T09:17:28.000Z</time>
      </trkpt>
      <trkpt lat="48.79543" lon="2.21152">
        <ele>189.87</ele>
        <time>2021-04-17T09:17:35.000Z</time>
      </trkpt>
      <trkpt lat="48.79535" lon="2.21146">
        <ele>189.55</ele>
        <time>2021-04-17T09:17:49.000Z</time>
      </trkpt>
      <trkpt lat="48.79526" lon="2.2114">
        <ele>189.09</ele>
        <time>2021-04-17T09:17:57.000Z</time>
      </trkpt>
      <trkpt lat="48.79518" lon="2.21133">
        <ele>188.07</ele>
        <time>2021-04-17T09:18:08.000Z</time>
      </trkpt>
      <trkpt lat="48.79509" lon="2.21129">
        <ele>187.45</ele>
        <time>2021-04-17T09:18:17.000Z</time>
      </trkpt>
      <trkpt lat="48.795" lon="2.21119">
        <ele>186.92</ele>
        <time>2021-04-17T09:18:25.000Z</time>
      </trkpt>
      <trkpt lat="48.79493" lon="2.21112">
        <ele>186.34</ele>
        <time>2021-04-17T09:18:35.000Z</time>
      </trkpt>
      <trkpt lat="48.79489" lon="2.21099">
        <ele>185.78</ele>
        <time>2021-04-17T09:18:52.000Z</time>
      </trkpt>
      <trkpt lat="48.7948" lon="2.21096">
        <ele>185.6</ele>
        <time>2021-04-17T09:18:56.000Z</time>
      </trkpt>
      <trkpt lat="48.79471" lon="2.21092">
        <ele>185.45</ele>
        <time>2021-04-17T09:19:00.000Z</time>
      </trkpt>
      <trkpt lat="48.79464" lon="2.21084">
        <ele>185.06</ele>
        <time>2021-04-17T09:19:08.000Z</time>
      </trkpt>
      <trkpt lat="48.79457" lon="2.21075">
        <ele>184.23</ele>
        <time>2021-04-17T09:19:16.000Z</time>
      </trkpt>
      <trkpt lat="48.79449" lon="2.21066">
        <ele>183.59</ele>
        <time>2021-04-17T09:19:23.000Z</time>
      </trkpt>
      <trkpt lat="48.79443" lon="2.21055">
        <ele>182.36</ele>
        <time>2021-04-17T09:19:37.000Z</time>
      </trkpt>
      <trkpt lat="48.79435" lon="2.21044">
        <ele>181.52</ele>
        <time>2021-04-17T09:19:48.000Z</time>
      </trkpt>
      <trkpt lat="48.79428" lon="2.21033">
        <ele>180.91</ele>
        <time>2021-04-17T09:19:54.000Z</time>
      </trkpt>
      <trkpt lat="48.7942" lon="2.21025">
        <ele>180.39</ele>
        <time>2021-04-17T09:19:58.000Z</time>
      </trkpt>
      <trkpt lat="48.79411" lon="2.21022">
        <ele>179.55</ele>
        <time>2021-04-17T09:20:04.000Z</time>
      </trkpt>
      <trkpt lat="48.79403" lon="2.21015">
        <ele>178.58</ele>
        <time>2021-04-17T09:20:12.999Z</time>
      </trkpt>
      <trkpt lat="48.79394" lon="2.21011">
        <ele>177.73</ele>
        <time>2021-04-17T09:20:22.999Z</time>
      </trkpt>
      <trkpt lat="48.79386" lon="2.21005">
        <ele>177.34</ele>
        <time>2021-04-17T09:20:39.999Z</time>
      </trkpt>
      <trkpt lat="48.7938" lon="2.20994">
        <ele>179.58</ele>
        <time>2021-04-17T09:21:19.999Z</time>
      </trkpt>
      <trkpt lat="48.79383" lon="2.20981">
        <ele>185.79</ele>
        <time>2021-04-17T09:21:38.999Z</time>
      </trkpt>
      <trkpt lat="48.79384" lon="2.20967">
        <ele>193.33</ele>
        <time>2021-04-17T09:22:21.999Z</time>
      </trkpt>
      <trkpt lat="48.79389" lon="2.20954">
        <ele>195.48</ele>
        <time>2021-04-17T09:22:29.999Z</time>
      </trkpt>
      <trkpt lat="48.79395" lon="2.20943">
        <ele>197.38</ele>
        <time>2021-04-17T09:22:55.999Z</time>
      </trkpt>
      <trkpt lat="48.79399" lon="2.20932">
        <ele>204.28</ele>
        <time>2021-04-17T09:24:07.999Z</time>
      </trkpt>
      <trkpt lat="48.79407" lon="2.20921">
        <ele>205.12</ele>
        <time>2021-04-17T09:24:13.999Z</time>
      </trkpt>
      <trkpt lat="48.79414" lon="2.20911">
        <ele>205.83</ele>
        <time>2021-04-17T09:24:19.999Z</time>
      </trkpt>
      <trkpt lat="48.79421" lon="2.20901">
        <ele>206.46</ele>
        <time>2021-04-17T09:24:25.999Z</time>
      </trkpt>
      <trkpt lat="48.79427" lon="2.20891">
        <ele>207.17</ele>
        <time>2021-04-17T09:24:34.999Z</time>
      </trkpt>
      <trkpt lat="48.79428" lon="2.20876">
        <ele>207.87</ele>
        <time>2021-04-17T09:24:45.999Z</time>
      </trkpt>
      <trkpt lat="48.79434" lon="2.20866">
        <ele>208.24</ele>
        <time>2021-04-17T09:24:52.999Z</time>
      </trkpt>
      <trkpt lat="48.79439" lon="2.20853">
        <ele>208.44</ele>
        <time>2021-04-17T09:24:57.999Z</time>
      </trkpt>
      <trkpt lat="48.79442" lon="2.20838">
        <ele>208.65</ele>
        <time>2021-04-17T09:25:04.999Z</time>
      </trkpt>
      <trkpt lat="48.79448" lon="2.20827">
        <ele>208.84</ele>
        <time>2021-04-17T09:25:12.999Z</time>
      </trkpt>
      <trkpt lat="48.79454" lon="2.20813">
        <ele>208.92</ele>
        <time>2021-04-17T09:25:19.999Z</time>
      </trkpt>
      <trkpt lat="48.79458" lon="2.20801">
        <ele>209.01</ele>
        <time>2021-04-17T09:25:27.999Z</time>
      </trkpt>
      <trkpt lat="48.79463" lon="2.20789">
        <ele>209.15</ele>
        <time>2021-04-17T09:25:41.999Z</time>
      </trkpt>
      <trkpt lat="48.79467" lon="2.20774">
        <ele>209.13</ele>
        <time>2021-04-17T09:25:50.999Z</time>
      </trkpt>
      <trkpt lat="48.79472" lon="2.20761">
        <ele>209.07</ele>
        <time>2021-04-17T09:25:56.999Z</time>
      </trkpt>
      <trkpt lat="48.79476" lon="2.20747">
        <ele>208.98</ele>
        <time>2021-04-17T09:26:06.999Z</time>
      </trkpt>
      <trkpt lat="48.79482" lon="2.20734">
        <ele>208.92</ele>
        <time>2021-04-17T09:26:12.999Z</time>
      </trkpt>
      <trkpt lat="48.79487" lon="2.20721">
        <ele>208.83</ele>
        <time>2021-04-17T09:26:22.999Z</time>
      </trkpt>
      <trkpt lat="48.79491" lon="2.20709">
        <ele>208.76</ele>
        <time>2021-04-17T09:26:31.999Z</time>
      </trkpt>
      <trkpt lat="48.79497" lon="2.20696">
        <ele>208.73</ele>
        <time>2021-04-17T09:26:38.999Z</time>
      </trkpt>
      <trkpt lat="48.795" lon="2.20682">
        <ele>208.67</ele>
        <time>2021-04-17T09:26:48.999Z</time>
      </trkpt>
      <trkpt lat="48.79502" lon="2.20668">
        <ele>208.65</ele>
        <time>2021-04-17T09:26:56.999Z</time>
      </trkpt>
      <trkpt lat="48.79503" lon="2.20653">
        <ele>208.68</ele>
        <time>2021-04-17T09:27:05.999Z</time>
      </trkpt>
      <trkpt lat="48.79505" lon="2.20639">
        <ele>208.74</ele>
        <time>2021-04-17T09:27:12.999Z</time>
      </trkpt>
      <trkpt lat="48.79505" lon="2.20625">
        <ele>208.84</ele>
        <time>2021-04-17T09:27:24.999Z</time>
      </trkpt>
      <trkpt lat="48.79504" lon="2.20611">
        <ele>208.9</ele>
        <time>2021-04-17T09:27:30.999Z</time>
      </trkpt>
      <trkpt lat="48.79502" lon="2.20597">
        <ele>208.98</ele>
        <time>2021-04-17T09:27:35.999Z</time>
      </trkpt>
      <trkpt lat="48.79505" lon="2.20583">
        <ele>209.07</ele>
        <time>2021-04-17T09:27:41.999Z</time>
      </trkpt>
      <trkpt lat="48.79501" lon="2.20599">
        <ele>208.45</ele>
        <time>2021-04-17T09:28:13.999Z</time>
      </trkpt>
      <trkpt lat="48.79505" lon="2.20587">
        <ele>208.17</ele>
        <time>2021-04-17T09:28:24.999Z</time>
      </trkpt>
      <trkpt lat="48.79505" lon="2.2057">
        <ele>207.82</ele>
        <time>2021-04-17T09:28:43.999Z</time>
      </trkpt>
      <trkpt lat="48.79505" lon="2.20555">
        <ele>207.64</ele>
        <time>2021-04-17T09:28:50.999Z</time>
      </trkpt>
      <trkpt lat="48.79504" lon="2.20541">
        <ele>207.54</ele>
        <time>2021-04-17T09:29:00.999Z</time>
      </trkpt>
      <trkpt lat="48.7951" lon="2.2053">
        <ele>207.47</ele>
        <time>2021-04-17T09:29:14.999Z</time>
      </trkpt>
      <trkpt lat="48.79519" lon="2.20521">
        <ele>207.46</ele>
        <time>2021-04-17T09:29:20.999Z</time>
      </trkpt>
      <trkpt lat="48.79527" lon="2.2051">
        <ele>207.44</ele>
        <time>2021-04-17T09:29:28.999Z</time>
      </trkpt>
      <trkpt lat="48.79534" lon="2.20502">
        <ele>207.39</ele>
        <time>2021-04-17T09:29:46.999Z</time>
      </trkpt>
      <trkpt lat="48.79541" lon="2.20492">
        <ele>207.37</ele>
        <time>2021-04-17T09:29:52.999Z</time>
      </trkpt>
      <trkpt lat="48.79549" lon="2.20486">
        <ele>207.35</ele>
        <time>2021-04-17T09:29:58.999Z</time>
      </trkpt>
      <trkpt lat="48.79556" lon="2.20476">
        <ele>207.34</ele>
        <time>2021-04-17T09:30:07.999Z</time>
      </trkpt>
      <trkpt lat="48.79559" lon="2.2046">
        <ele>207.36</ele>
        <time>2021-04-17T09:30:14.999Z</time>
      </trkpt>
      <trkpt lat="48.79562" lon="2.20446">
        <ele>207.43</ele>
        <time>2021-04-17T09:30:27.999Z</time>
      </trkpt>
      <trkpt lat="48.7957" lon="2.2044">
        <ele>207.4</ele>
        <time>2021-04-17T09:30:50.999Z</time>
      </trkpt>
      <trkpt lat="48.79582" lon="2.20444">
        <ele>207.36</ele>
        <time>2021-04-17T09:30:55.999Z</time>
      </trkpt>
      <trkpt lat="48.79592" lon="2.2045">
        <ele>207.33</ele>
        <time>2021-04-17T09:30:58.999Z</time>
      </trkpt>
      <trkpt lat="48.79601" lon="2.20456">
        <ele>207.26</ele>
        <time>2021-04-17T09:31:04.999Z</time>
      </trkpt>
      <trkpt lat="48.79608" lon="2.20465">
        <ele>207.1</ele>
        <time>2021-04-17T09:31:16.999Z</time>
      </trkpt>
      <trkpt lat="48.79615" lon="2.20475">
        <ele>206.87</ele>
        <time>2021-04-17T09:31:49.999Z</time>
      </trkpt>
      <trkpt lat="48.7962" lon="2.20463">
        <ele>207.74</ele>
        <time>2021-04-17T09:32:33.999Z</time>
      </trkpt>
      <trkpt lat="48.79628" lon="2.20474">
        <ele>209.91</ele>
        <time>2021-04-17T09:33:47.999Z</time>
      </trkpt>
      <trkpt lat="48.79628" lon="2.2046">
        <ele>210.67</ele>
        <time>2021-04-17T09:34:31.999Z</time>
      </trkpt>
      <trkpt lat="48.7963" lon="2.20475">
        <ele>213</ele>
        <time>2021-04-17T09:37:06.999Z</time>
      </trkpt>
      <trkpt lat="48.79638" lon="2.20482">
        <ele>213.41</ele>
        <time>2021-04-17T09:37:14.999Z</time>
      </trkpt>
      <trkpt lat="48.79642" lon="2.20495">
        <ele>213.98</ele>
        <time>2021-04-17T09:37:36.999Z</time>
      </trkpt>
      <trkpt lat="48.79647" lon="2.20506">
        <ele>214.17</ele>
        <time>2021-04-17T09:37:44.999Z</time>
      </trkpt>
      <trkpt lat="48.79651" lon="2.2052">
        <ele>214.36</ele>
        <time>2021-04-17T09:37:54.000Z</time>
      </trkpt>
      <trkpt lat="48.79652" lon="2.20534">
        <ele>214.5</ele>
        <time>2021-04-17T09:38:02.000Z</time>
      </trkpt>
      <trkpt lat="48.79655" lon="2.20547">
        <ele>214.6</ele>
        <time>2021-04-17T09:38:09.000Z</time>
      </trkpt>
      <trkpt lat="48.79662" lon="2.20559">
        <ele>214.71</ele>
        <time>2021-04-17T09:38:17.000Z</time>
      </trkpt>
      <trkpt lat="48.79666" lon="2.20572">
        <ele>214.81</ele>
        <time>2021-04-17T09:38:23.000Z</time>
      </trkpt>
      <trkpt lat="48.7967" lon="2.20586">
        <ele>215</ele>
        <time>2021-04-17T09:38:37.000Z</time>
      </trkpt>
      <trkpt lat="48.79674" lon="2.20599">
        <ele>215.09</ele>
        <time>2021-04-17T09:38:43.000Z</time>
      </trkpt>
      <trkpt lat="48.79677" lon="2.20614">
        <ele>215.24</ele>
        <time>2021-04-17T09:38:52.000Z</time>
      </trkpt>
      <trkpt lat="48.79678" lon="2.20628">
        <ele>215.47</ele>
        <time>2021-04-17T09:39:07.000Z</time>
      </trkpt>
      <trkpt lat="48.79684" lon="2.20638">
        <ele>215.59</ele>
        <time>2021-04-17T09:39:14.000Z</time>
      </trkpt>
      <trkpt lat="48.7969" lon="2.2065">
        <ele>215.71</ele>
        <time>2021-04-17T09:39:20.000Z</time>
      </trkpt>
      <trkpt lat="48.79695" lon="2.20663">
        <ele>215.78</ele>
        <time>2021-04-17T09:39:24.000Z</time>
      </trkpt>
      <trkpt lat="48.79699" lon="2.20675">
        <ele>215.94</ele>
        <time>2021-04-17T09:39:33.000Z</time>
      </trkpt>
      <trkpt lat="48.79704" lon="2.20688">
        <ele>216.12</ele>
        <time>2021-04-17T09:39:44.000Z</time>
      </trkpt>
      <trkpt lat="48.79708" lon="2.20702">
        <ele>216.27</ele>
        <time>2021-04-17T09:39:57.000Z</time>
      </trkpt>
      <trkpt lat="48.7971" lon="2.20716">
        <ele>216.38</ele>
        <time>2021-04-17T09:40:06.000Z</time>
      </trkpt>
      <trkpt lat="48.79712" lon="2.2073">
        <ele>216.53</ele>
        <time>2021-04-17T09:40:18.000Z</time>
      </trkpt>
      <trkpt lat="48.79719" lon="2.20738">
        <ele>216.65</ele>
        <time>2021-04-17T09:40:27.000Z</time>
      </trkpt>
      <trkpt lat="48.79723" lon="2.20752">
        <ele>216.73</ele>
        <time>2021-04-17T09:40:32.000Z</time>
      </trkpt>
      <trkpt lat="48.79729" lon="2.20763">
        <ele>217.07</ele>
        <time>2021-04-17T09:40:54.000Z</time>
      </trkpt>
      <trkpt lat="48.79738" lon="2.20771">
        <ele>217.2</ele>
        <time>2021-04-17T09:41:12.000Z</time>
      </trkpt>
      <trkpt lat="48.79743" lon="2.20786">
        <ele>218.64</ele>
        <time>2021-04-17T09:42:42.000Z</time>
      </trkpt>
      <trkpt lat="48.79748" lon="2.208">
        <ele>219.25</ele>
        <time>2021-04-17T09:42:56.000Z</time>
      </trkpt>
      <trkpt lat="48.79748" lon="2.20815">
        <ele>219.61</ele>
        <time>2021-04-17T09:43:04.000Z</time>
      </trkpt>
      <trkpt lat="48.79749" lon="2.20832">
        <ele>219.84</ele>
        <time>2021-04-17T09:43:10.000Z</time>
      </trkpt>
      <trkpt lat="48.79754" lon="2.20846">
        <ele>220.02</ele>
        <time>2021-04-17T09:43:15.000Z</time>
      </trkpt>
      <trkpt lat="48.79758" lon="2.2086">
        <ele>220.39</ele>
        <time>2021-04-17T09:43:24.000Z</time>
      </trkpt>
      <trkpt lat="48.79759" lon="2.20874">
        <ele>220.97</ele>
        <time>2021-04-17T09:43:38.000Z</time>
      </trkpt>
      <trkpt lat="48.79762" lon="2.2089">
        <ele>221.24</ele>
        <time>2021-04-17T09:43:47.000Z</time>
      </trkpt>
      <trkpt lat="48.79764" lon="2.20905">
        <ele>221.43</ele>
        <time>2021-04-17T09:43:53.000Z</time>
      </trkpt>
      <trkpt lat="48.79767" lon="2.20918">
        <ele>221.81</ele>
        <time>2021-04-17T09:44:07.000Z</time>
      </trkpt>
      <trkpt lat="48.79764" lon="2.20932">
        <ele>222.01</ele>
        <time>2021-04-17T09:44:17.000Z</time>
      </trkpt>
      <trkpt lat="48.79767" lon="2.20947">
        <ele>222.25</ele>
        <time>2021-04-17T09:44:34.000Z</time>
      </trkpt>
      <trkpt lat="48.79773" lon="2.2096">
        <ele>222.34</ele>
        <time>2021-04-17T09:44:42.000Z</time>
      </trkpt>
      <trkpt lat="48.7978" lon="2.2097">
        <ele>222.4</ele>
        <time>2021-04-17T09:44:47.000Z</time>
      </trkpt>
      <trkpt lat="48.79789" lon="2.20979">
        <ele>222.45</ele>
        <time>2021-04-17T09:44:51.000Z</time>
      </trkpt>
      <trkpt lat="48.79794" lon="2.20991">
        <ele>222.56</ele>
        <time>2021-04-17T09:44:59.000Z</time>
      </trkpt>
      <trkpt lat="48.79798" lon="2.21003">
        <ele>222.68</ele>
        <time>2021-04-17T09:45:13.000Z</time>
      </trkpt>
      <trkpt lat="48.79803" lon="2.21015">
        <ele>222.72</ele>
        <time>2021-04-17T09:45:18.000Z</time>
      </trkpt>
      <trkpt lat="48.79806" lon="2.21028">
        <ele>222.75</ele>
        <time>2021-04-17T09:45:22.000Z</time>
      </trkpt>
      <trkpt lat="48.79808" lon="2.21046">
        <ele>222.82</ele>
        <time>2021-04-17T09:45:29.000Z</time>
      </trkpt>
      <trkpt lat="48.79811" lon="2.21059">
        <ele>222.92</ele>
        <time>2021-04-17T09:45:36.000Z</time>
      </trkpt>
      <trkpt lat="48.79816" lon="2.21072">
        <ele>223</ele>
        <time>2021-04-17T09:45:43.000Z</time>
      </trkpt>
      <trkpt lat="48.79818" lon="2.21088">
        <ele>223.1</ele>
        <time>2021-04-17T09:45:52.000Z</time>
      </trkpt>
      <trkpt lat="48.79824" lon="2.211">
        <ele>223.24</ele>
        <time>2021-04-17T09:46:10.000Z</time>
      </trkpt>
      <trkpt lat="48.79833" lon="2.21108">
        <ele>223.24</ele>
        <time>2021-04-17T09:46:24.000Z</time>
      </trkpt>
      <trkpt lat="48.79842" lon="2.21114">
        <ele>223.22</ele>
        <time>2021-04-17T09:46:28.000Z</time>
      </trkpt>
      <trkpt lat="48.79847" lon="2.21126">
        <ele>223.18</ele>
        <time>2021-04-17T09:46:33.000Z</time>
      </trkpt>
      <trkpt lat="48.7985" lon="2.2114">
        <ele>223.12</ele>
        <time>2021-04-17T09:46:52.000Z</time>
      </trkpt>
      <trkpt lat="48.79856" lon="2.21151">
        <ele>223.01</ele>
        <time>2021-04-17T09:47:01.000Z</time>
      </trkpt>
      <trkpt lat="48.79865" lon="2.21156">
        <ele>222.93</ele>
        <time>2021-04-17T09:47:07.000Z</time>
      </trkpt>
      <trkpt lat="48.79867" lon="2.2117">
        <ele>222.82</ele>
        <time>2021-04-17T09:47:18.000Z</time>
      </trkpt>
      <trkpt lat="48.79872" lon="2.21183">
        <ele>222.71</ele>
        <time>2021-04-17T09:47:27.000Z</time>
      </trkpt>
      <trkpt lat="48.79877" lon="2.21197">
        <ele>222.59</ele>
        <time>2021-04-17T09:47:41.000Z</time>
      </trkpt>
      <trkpt lat="48.79883" lon="2.21207">
        <ele>222.49</ele>
        <time>2021-04-17T09:47:49.000Z</time>
      </trkpt>
      <trkpt lat="48.79885" lon="2.21221">
        <ele>222.35</ele>
        <time>2021-04-17T09:48:03.000Z</time>
      </trkpt>
      <trkpt lat="48.79895" lon="2.21226">
        <ele>222.19</ele>
        <time>2021-04-17T09:48:17.000Z</time>
      </trkpt>
      <trkpt lat="48.79899" lon="2.21239">
        <ele>222.05</ele>
        <time>2021-04-17T09:48:47.000Z</time>
      </trkpt>
      <trkpt lat="48.79899" lon="2.21254">
        <ele>222.01</ele>
        <time>2021-04-17T09:49:32.000Z</time>
      </trkpt>
      <trkpt lat="48.79903" lon="2.21267">
        <ele>221.96</ele>
        <time>2021-04-17T09:49:43.000Z</time>
      </trkpt>
      <trkpt lat="48.79904" lon="2.2128">
        <ele>221.9</ele>
        <time>2021-04-17T09:49:55.000Z</time>
      </trkpt>
      <trkpt lat="48.7991" lon="2.2129">
        <ele>221.93</ele>
        <time>2021-04-17T09:50:26.000Z</time>
      </trkpt>
      <trkpt lat="48.79903" lon="2.21299">
        <ele>222.08</ele>
        <time>2021-04-17T09:51:07.000Z</time>
      </trkpt>
      <trkpt lat="48.79904" lon="2.21312">
        <ele>222.06</ele>
        <time>2021-04-17T09:51:21.000Z</time>
      </trkpt>
      <trkpt lat="48.79908" lon="2.21325">
        <ele>222.06</ele>
        <time>2021-04-17T09:51:33.000Z</time>
      </trkpt>
      <trkpt lat="48.79913" lon="2.21339">
        <ele>222.04</ele>
        <time>2021-04-17T09:51:43.000Z</time>
      </trkpt>
      <trkpt lat="48.7992" lon="2.21349">
        <ele>222.05</ele>
        <time>2021-04-17T09:52:01.000Z</time>
      </trkpt>
      <trkpt lat="48.79925" lon="2.2136">
        <ele>222.14</ele>
        <time>2021-04-17T09:52:57.000Z</time>
      </trkpt>
      <trkpt lat="48.7992" lon="2.21371">
        <ele>222.21</ele>
        <time>2021-04-17T09:53:17.000Z</time>
      </trkpt>
      <trkpt lat="48.79915" lon="2.21382">
        <ele>222.17</ele>
        <time>2021-04-17T09:53:37.000Z</time>
      </trkpt>
      <trkpt lat="48.79906" lon="2.21391">
        <ele>222.15</ele>
        <time>2021-04-17T09:53:42.000Z</time>
      </trkpt>
      <trkpt lat="48.799" lon="2.21403">
        <ele>222.1</ele>
        <time>2021-04-17T09:53:51.000Z</time>
      </trkpt>
      <trkpt lat="48.79895" lon="2.21416">
        <ele>222.05</ele>
        <time>2021-04-17T09:54:00.000Z</time>
      </trkpt>
      <trkpt lat="48.79891" lon="2.21429">
        <ele>222.02</ele>
        <time>2021-04-17T09:54:08.000Z</time>
      </trkpt>
      <trkpt lat="48.79885" lon="2.2144">
        <ele>222.01</ele>
        <time>2021-04-17T09:54:17.000Z</time>
      </trkpt>
      <trkpt lat="48.79875" lon="2.21449">
        <ele>222</ele>
        <time>2021-04-17T09:54:23.000Z</time>
      </trkpt>
      <trkpt lat="48.79872" lon="2.21462">
        <ele>221.99</ele>
        <time>2021-04-17T09:54:33.000Z</time>
      </trkpt>
      <trkpt lat="48.79868" lon="2.21474">
        <ele>222</ele>
        <time>2021-04-17T09:54:36.000Z</time>
      </trkpt>
      <trkpt lat="48.79867" lon="2.21491">
        <ele>222.05</ele>
        <time>2021-04-17T09:54:51.000Z</time>
      </trkpt>
      <trkpt lat="48.79859" lon="2.21501">
        <ele>222.11</ele>
        <time>2021-04-17T09:55:01.000Z</time>
      </trkpt>
      <trkpt lat="48.79857" lon="2.21515">
        <ele>222.18</ele>
        <time>2021-04-17T09:55:12.000Z</time>
      </trkpt>
      <trkpt lat="48.79851" lon="2.21526">
        <ele>222.23</ele>
        <time>2021-04-17T09:55:21.000Z</time>
      </trkpt>
      <trkpt lat="48.79844" lon="2.21534">
        <ele>222.3</ele>
        <time>2021-04-17T09:55:35.000Z</time>
      </trkpt>
      <trkpt lat="48.79839" lon="2.21547">
        <ele>222.35</ele>
        <time>2021-04-17T09:55:50.000Z</time>
      </trkpt>
      <trkpt lat="48.79833" lon="2.21556">
        <ele>222.36</ele>
        <time>2021-04-17T09:56:01.000Z</time>
      </trkpt>
      <trkpt lat="48.79828" lon="2.21569">
        <ele>222.34</ele>
        <time>2021-04-17T09:56:12.000Z</time>
      </trkpt>
      <trkpt lat="48.79826" lon="2.21585">
        <ele>222.32</ele>
        <time>2021-04-17T09:56:16.999Z</time>
      </trkpt>
      <trkpt lat="48.79826" lon="2.216">
        <ele>222.3</ele>
        <time>2021-04-17T09:56:21.999Z</time>
      </trkpt>
      <trkpt lat="48.79822" lon="2.21615">
        <ele>222.26</ele>
        <time>2021-04-17T09:56:28.999Z</time>
      </trkpt>
      <trkpt lat="48.79819" lon="2.21628">
        <ele>222.24</ele>
        <time>2021-04-17T09:56:34.999Z</time>
      </trkpt>
      <trkpt lat="48.79819" lon="2.21642">
        <ele>222.25</ele>
        <time>2021-04-17T09:56:42.999Z</time>
      </trkpt>
      <trkpt lat="48.79814" lon="2.21669">
        <ele>222.35</ele>
        <time>2021-04-17T09:56:53.999Z</time>
      </trkpt>
      <trkpt lat="48.79813" lon="2.21688">
        <ele>222.36</ele>
        <time>2021-04-17T09:56:59.999Z</time>
      </trkpt>
      <trkpt lat="48.79821" lon="2.21695">
        <ele>222.36</ele>
        <time>2021-04-17T09:57:01.999Z</time>
      </trkpt>
      <trkpt lat="48.79824" lon="2.2171">
        <ele>222.38</ele>
        <time>2021-04-17T09:57:07.999Z</time>
      </trkpt>
      <trkpt lat="48.79825" lon="2.21725">
        <ele>222.45</ele>
        <time>2021-04-17T09:57:18.999Z</time>
      </trkpt>
      <trkpt lat="48.79821" lon="2.21739">
        <ele>222.55</ele>
        <time>2021-04-17T09:57:28.999Z</time>
      </trkpt>
      <trkpt lat="48.79818" lon="2.21753">
        <ele>222.66</ele>
        <time>2021-04-17T09:57:39.999Z</time>
      </trkpt>
      <trkpt lat="48.79818" lon="2.21768">
        <ele>222.75</ele>
        <time>2021-04-17T09:57:49.999Z</time>
      </trkpt>
      <trkpt lat="48.79815" lon="2.21783">
        <ele>222.88</ele>
        <time>2021-04-17T09:58:02.999Z</time>
      </trkpt>
      <trkpt lat="48.79812" lon="2.21798">
        <ele>222.95</ele>
        <time>2021-04-17T09:58:11.999Z</time>
      </trkpt>
      <trkpt lat="48.79811" lon="2.21812">
        <ele>222.99</ele>
        <time>2021-04-17T09:58:16.999Z</time>
      </trkpt>
      <trkpt lat="48.79809" lon="2.21827">
        <ele>223.07</ele>
        <time>2021-04-17T09:58:24.999Z</time>
      </trkpt>
      <trkpt lat="48.79809" lon="2.21842">
        <ele>223.14</ele>
        <time>2021-04-17T09:58:31.999Z</time>
      </trkpt>
      <trkpt lat="48.79809" lon="2.21856">
        <ele>223.22</ele>
        <time>2021-04-17T09:58:38.999Z</time>
      </trkpt>
      <trkpt lat="48.79816" lon="2.21864">
        <ele>223.41</ele>
        <time>2021-04-17T09:59:10.999Z</time>
      </trkpt>
      <trkpt lat="48.79823" lon="2.21872">
        <ele>223.47</ele>
        <time>2021-04-17T09:59:43.999Z</time>
      </trkpt>
      <trkpt lat="48.79832" lon="2.2188">
        <ele>223.45</ele>
        <time>2021-04-17T09:59:49.999Z</time>
      </trkpt>
      <trkpt lat="48.79839" lon="2.2189">
        <ele>223.36</ele>
        <time>2021-04-17T10:00:08.999Z</time>
      </trkpt>
      <trkpt lat="48.79848" lon="2.21896">
        <ele>223.27</ele>
        <time>2021-04-17T10:00:16.999Z</time>
      </trkpt>
      <trkpt lat="48.79856" lon="2.21901">
        <ele>223.18</ele>
        <time>2021-04-17T10:00:24.999Z</time>
      </trkpt>
      <trkpt lat="48.79865" lon="2.21909">
        <ele>223.04</ele>
        <time>2021-04-17T10:00:38.999Z</time>
      </trkpt>
      <trkpt lat="48.79871" lon="2.21918">
        <ele>222.92</ele>
        <time>2021-04-17T10:00:50.999Z</time>
      </trkpt>
      <trkpt lat="48.79879" lon="2.21927">
        <ele>222.8</ele>
        <time>2021-04-17T10:01:08.999Z</time>
      </trkpt>
      <trkpt lat="48.79886" lon="2.21934">
        <ele>222.73</ele>
        <time>2021-04-17T10:01:16.999Z</time>
      </trkpt>
      <trkpt lat="48.79894" lon="2.21942">
        <ele>222.64</ele>
        <time>2021-04-17T10:01:27.999Z</time>
      </trkpt>
      <trkpt lat="48.79902" lon="2.21951">
        <ele>222.55</ele>
        <time>2021-04-17T10:01:39.999Z</time>
      </trkpt>
      <trkpt lat="48.7991" lon="2.21959">
        <ele>222.51</ele>
        <time>2021-04-17T10:01:45.999Z</time>
      </trkpt>
      <trkpt lat="48.7992" lon="2.2196">
        <ele>222.43</ele>
        <time>2021-04-17T10:01:55.999Z</time>
      </trkpt>
      <trkpt lat="48.79928" lon="2.21963">
        <ele>222.4</ele>
        <time>2021-04-17T10:01:59.999Z</time>
      </trkpt>
      <trkpt lat="48.79936" lon="2.21973">
        <ele>222.31</ele>
        <time>2021-04-17T10:02:12.999Z</time>
      </trkpt>
      <trkpt lat="48.79947" lon="2.21976">
        <ele>222.23</ele>
        <time>2021-04-17T10:02:24.999Z</time>
      </trkpt>
      <trkpt lat="48.79956" lon="2.21978">
        <ele>222.19</ele>
        <time>2021-04-17T10:02:30.999Z</time>
      </trkpt>
      <trkpt lat="48.79963" lon="2.21986">
        <ele>222.15</ele>
        <time>2021-04-17T10:02:36.999Z</time>
      </trkpt>
      <trkpt lat="48.79973" lon="2.21993">
        <ele>222.07</ele>
        <time>2021-04-17T10:02:45.999Z</time>
      </trkpt>
      <trkpt lat="48.79982" lon="2.21996">
        <ele>222.03</ele>
        <time>2021-04-17T10:02:50.999Z</time>
      </trkpt>
      <trkpt lat="48.79992" lon="2.21997">
        <ele>222.01</ele>
        <time>2021-04-17T10:02:55.999Z</time>
      </trkpt>
      <trkpt lat="48.80001" lon="2.22001">
        <ele>221.94</ele>
        <time>2021-04-17T10:04:07.999Z</time>
      </trkpt>
      <trkpt lat="48.80009" lon="2.22006">
        <ele>221.95</ele>
        <time>2021-04-17T10:04:15.999Z</time>
      </trkpt>
      <trkpt lat="48.80019" lon="2.2201">
        <ele>221.96</ele>
        <time>2021-04-17T10:04:23.999Z</time>
      </trkpt>
      <trkpt lat="48.80026" lon="2.22017">
        <ele>221.97</ele>
        <time>2021-04-17T10:04:28.999Z</time>
      </trkpt>
      <trkpt lat="48.80035" lon="2.22026">
        <ele>221.98</ele>
        <time>2021-04-17T10:04:36.999Z</time>
      </trkpt>
      <trkpt lat="48.80045" lon="2.22029">
        <ele>221.99</ele>
        <time>2021-04-17T10:04:42.999Z</time>
      </trkpt>
      <trkpt lat="48.80054" lon="2.22034">
        <ele>222</ele>
        <time>2021-04-17T10:04:50.999Z</time>
      </trkpt>
      <trkpt lat="48.80062" lon="2.22038">
        <ele>222.01</ele>
        <time>2021-04-17T10:04:56.999Z</time>
      </trkpt>
      <trkpt lat="48.80071" lon="2.22046">
        <ele>222.03</ele>
        <time>2021-04-17T10:05:07.999Z</time>
      </trkpt>
      <trkpt lat="48.80082" lon="2.22049">
        <ele>222.06</ele>
        <time>2021-04-17T10:05:19.999Z</time>
      </trkpt>
      <trkpt lat="48.80091" lon="2.22057">
        <ele>222.07</ele>
        <time>2021-04-17T10:05:30.999Z</time>
      </trkpt>
      <trkpt lat="48.80099" lon="2.22064">
        <ele>222.09</ele>
        <time>2021-04-17T10:05:40.999Z</time>
      </trkpt>
      <trkpt lat="48.80108" lon="2.22068">
        <ele>222.09</ele>
        <time>2021-04-17T10:05:46.999Z</time>
      </trkpt>
      <trkpt lat="48.80115" lon="2.22078">
        <ele>222.13</ele>
        <time>2021-04-17T10:05:59.999Z</time>
      </trkpt>
      <trkpt lat="48.80124" lon="2.22086">
        <ele>222.16</ele>
        <time>2021-04-17T10:06:12.999Z</time>
      </trkpt>
      <trkpt lat="48.80134" lon="2.22089">
        <ele>222.18</ele>
        <time>2021-04-17T10:06:19.999Z</time>
      </trkpt>
      <trkpt lat="48.80144" lon="2.22094">
        <ele>222.2</ele>
        <time>2021-04-17T10:06:27.999Z</time>
      </trkpt>
      <trkpt lat="48.8015" lon="2.22104">
        <ele>222.23</ele>
        <time>2021-04-17T10:06:39.999Z</time>
      </trkpt>
      <trkpt lat="48.80163" lon="2.22098">
        <ele>222.26</ele>
        <time>2021-04-17T10:06:49.999Z</time>
      </trkpt>
      <trkpt lat="48.80173" lon="2.22095">
        <ele>222.27</ele>
        <time>2021-04-17T10:06:54.999Z</time>
      </trkpt>
      <trkpt lat="48.80181" lon="2.22089">
        <ele>222.29</ele>
        <time>2021-04-17T10:07:08.999Z</time>
      </trkpt>
      <trkpt lat="48.8019" lon="2.22083">
        <ele>222.29</ele>
        <time>2021-04-17T10:07:14.999Z</time>
      </trkpt>
      <trkpt lat="48.80199" lon="2.22082">
        <ele>222.25</ele>
        <time>2021-04-17T10:07:25.999Z</time>
      </trkpt>
      <trkpt lat="48.80207" lon="2.22074">
        <ele>222.24</ele>
        <time>2021-04-17T10:07:30.999Z</time>
      </trkpt>
      <trkpt lat="48.80215" lon="2.22067">
        <ele>222.22</ele>
        <time>2021-04-17T10:07:36.999Z</time>
      </trkpt>
      <trkpt lat="48.80222" lon="2.22058">
        <ele>222.2</ele>
        <time>2021-04-17T10:07:41.999Z</time>
      </trkpt>
      <trkpt lat="48.80231" lon="2.22052">
        <ele>222.14</ele>
        <time>2021-04-17T10:07:51.999Z</time>
      </trkpt>
      <trkpt lat="48.8024" lon="2.22047">
        <ele>222.07</ele>
        <time>2021-04-17T10:07:59.999Z</time>
      </trkpt>
      <trkpt lat="48.80245" lon="2.22032">
        <ele>221.9</ele>
        <time>2021-04-17T10:08:21.999Z</time>
      </trkpt>
      <trkpt lat="48.80255" lon="2.22029">
        <ele>221.58</ele>
        <time>2021-04-17T10:08:39.999Z</time>
      </trkpt>
      <trkpt lat="48.80266" lon="2.22024">
        <ele>221.33</ele>
        <time>2021-04-17T10:08:46.999Z</time>
      </trkpt>
      <trkpt lat="48.80275" lon="2.22031">
        <ele>221.11</ele>
        <time>2021-04-17T10:08:52.999Z</time>
      </trkpt>
      <trkpt lat="48.80284" lon="2.22038">
        <ele>220.92</ele>
        <time>2021-04-17T10:08:57.999Z</time>
      </trkpt>
      <trkpt lat="48.80293" lon="2.22039">
        <ele>220.17</ele>
        <time>2021-04-17T10:09:33.999Z</time>
      </trkpt>
      <trkpt lat="48.80302" lon="2.22027">
        <ele>220.02</ele>
        <time>2021-04-17T10:09:40.999Z</time>
      </trkpt>
      <trkpt lat="48.80299" lon="2.22041">
        <ele>219.76</ele>
        <time>2021-04-17T10:09:46.999Z</time>
      </trkpt>
      <trkpt lat="48.80307" lon="2.22052">
        <ele>219.04</ele>
        <time>2021-04-17T10:10:02.999Z</time>
      </trkpt>
      <trkpt lat="48.80315" lon="2.2206">
        <ele>218.76</ele>
        <time>2021-04-17T10:10:07.999Z</time>
      </trkpt>
      <trkpt lat="48.80323" lon="2.22069">
        <ele>218.44</ele>
        <time>2021-04-17T10:10:14.999Z</time>
      </trkpt>
      <trkpt lat="48.80331" lon="2.22076">
        <ele>218.24</ele>
        <time>2021-04-17T10:10:26.999Z</time>
      </trkpt>
      <trkpt lat="48.80341" lon="2.22084">
        <ele>218.19</ele>
        <time>2021-04-17T10:10:34.999Z</time>
      </trkpt>
      <trkpt lat="48.80346" lon="2.22094">
        <ele>218.09</ele>
        <time>2021-04-17T10:10:41.999Z</time>
      </trkpt>
      <trkpt lat="48.8035" lon="2.22107">
        <ele>217.81</ele>
        <time>2021-04-17T10:10:52.999Z</time>
      </trkpt>
      <trkpt lat="48.80359" lon="2.2211">
        <ele>217.58</ele>
        <time>2021-04-17T10:11:00.999Z</time>
      </trkpt>
      <trkpt lat="48.80369" lon="2.22109">
        <ele>217.43</ele>
        <time>2021-04-17T10:11:08.999Z</time>
      </trkpt>
      <trkpt lat="48.80374" lon="2.22122">
        <ele>217.48</ele>
        <time>2021-04-17T10:11:18.999Z</time>
      </trkpt>
      <trkpt lat="48.80382" lon="2.2213">
        <ele>217.53</ele>
        <time>2021-04-17T10:11:23.999Z</time>
      </trkpt>
      <trkpt lat="48.80392" lon="2.22137">
        <ele>217.62</ele>
        <time>2021-04-17T10:11:29.999Z</time>
      </trkpt>
      <trkpt lat="48.80401" lon="2.22143">
        <ele>217.87</ele>
        <time>2021-04-17T10:11:39.999Z</time>
      </trkpt>
      <trkpt lat="48.80408" lon="2.22152">
        <ele>218.13</ele>
        <time>2021-04-17T10:11:49.999Z</time>
      </trkpt>
      <trkpt lat="48.80418" lon="2.22155">
        <ele>218.41</ele>
        <time>2021-04-17T10:11:59.999Z</time>
      </trkpt>
      <trkpt lat="48.80424" lon="2.22167">
        <ele>218.62</ele>
        <time>2021-04-17T10:12:06.999Z</time>
      </trkpt>
      <trkpt lat="48.80432" lon="2.22173">
        <ele>218.81</ele>
        <time>2021-04-17T10:12:13.999Z</time>
      </trkpt>
      <trkpt lat="48.80441" lon="2.22177">
        <ele>219.05</ele>
        <time>2021-04-17T10:12:24.999Z</time>
      </trkpt>
      <trkpt lat="48.80449" lon="2.22187">
        <ele>219.09</ele>
        <time>2021-04-17T10:12:31.999Z</time>
      </trkpt>
      <trkpt lat="48.80454" lon="2.22201">
        <ele>219.19</ele>
        <time>2021-04-17T10:12:52.999Z</time>
      </trkpt>
      <trkpt lat="48.80458" lon="2.22216">
        <ele>219.2</ele>
        <time>2021-04-17T10:12:56.999Z</time>
      </trkpt>
      <trkpt lat="48.80461" lon="2.22231">
        <ele>219.21</ele>
        <time>2021-04-17T10:12:59.999Z</time>
      </trkpt>
      <trkpt lat="48.80467" lon="2.2224">
        <ele>219.18</ele>
        <time>2021-04-17T10:13:06.999Z</time>
      </trkpt>
      <trkpt lat="48.80475" lon="2.22249">
        <ele>219.15</ele>
        <time>2021-04-17T10:13:11.999Z</time>
      </trkpt>
      <trkpt lat="48.8048" lon="2.22261">
        <ele>219.08</ele>
        <time>2021-04-17T10:13:20.999Z</time>
      </trkpt>
      <trkpt lat="48.80488" lon="2.22271">
        <ele>219.04</ele>
        <time>2021-04-17T10:13:27.999Z</time>
      </trkpt>
      <trkpt lat="48.80493" lon="2.22286">
        <ele>219.01</ele>
        <time>2021-04-17T10:13:36.999Z</time>
      </trkpt>
      <trkpt lat="48.80499" lon="2.22297">
        <ele>219.09</ele>
        <time>2021-04-17T10:13:49.999Z</time>
      </trkpt>
      <trkpt lat="48.80506" lon="2.22306">
        <ele>219.05</ele>
        <time>2021-04-17T10:13:55.999Z</time>
      </trkpt>
      <trkpt lat="48.80514" lon="2.22314">
        <ele>218.96</ele>
        <time>2021-04-17T10:14:04.999Z</time>
      </trkpt>
      <trkpt lat="48.80525" lon="2.22315">
        <ele>218.88</ele>
        <time>2021-04-17T10:14:11.999Z</time>
      </trkpt>
      <trkpt lat="48.80536" lon="2.2232">
        <ele>218.85</ele>
        <time>2021-04-17T10:14:16.999Z</time>
      </trkpt>
      <trkpt lat="48.80546" lon="2.2232">
        <ele>218.83</ele>
        <time>2021-04-17T10:14:22.999Z</time>
      </trkpt>
      <trkpt lat="48.80554" lon="2.22327">
        <ele>218.77</ele>
        <time>2021-04-17T10:14:29.999Z</time>
      </trkpt>
      <trkpt lat="48.80563" lon="2.22335">
        <ele>218.62</ele>
        <time>2021-04-17T10:14:45.999Z</time>
      </trkpt>
      <trkpt lat="48.80565" lon="2.22349">
        <ele>218.67</ele>
        <time>2021-04-17T10:14:59.999Z</time>
      </trkpt>
      <trkpt lat="48.80573" lon="2.22358">
        <ele>218.92</ele>
        <time>2021-04-17T10:15:13.999Z</time>
      </trkpt>
      <trkpt lat="48.80577" lon="2.22371">
        <ele>219.02</ele>
        <time>2021-04-17T10:15:20.000Z</time>
      </trkpt>
      <trkpt lat="48.80572" lon="2.22385">
        <ele>222.55</ele>
        <time>2021-04-17T10:18:04.000Z</time>
      </trkpt>
      <trkpt lat="48.80577" lon="2.22396">
        <ele>224.91</ele>
        <time>2021-04-17T10:19:50.000Z</time>
      </trkpt>
      <trkpt lat="48.80581" lon="2.22409">
        <ele>225.06</ele>
        <time>2021-04-17T10:20:02.000Z</time>
      </trkpt>
      <trkpt lat="48.80587" lon="2.2242">
        <ele>225.23</ele>
        <time>2021-04-17T10:20:13.000Z</time>
      </trkpt>
      <trkpt lat="48.80591" lon="2.22433">
        <ele>225.41</ele>
        <time>2021-04-17T10:20:22.000Z</time>
      </trkpt>
      <trkpt lat="48.80593" lon="2.22447">
        <ele>225.66</ele>
        <time>2021-04-17T10:20:34.000Z</time>
      </trkpt>
      <trkpt lat="48.80592" lon="2.22461">
        <ele>225.94</ele>
        <time>2021-04-17T10:20:46.000Z</time>
      </trkpt>
      <trkpt lat="48.80593" lon="2.22477">
        <ele>226.15</ele>
        <time>2021-04-17T10:20:59.000Z</time>
      </trkpt>
      <trkpt lat="48.80597" lon="2.2249">
        <ele>226.26</ele>
        <time>2021-04-17T10:21:08.000Z</time>
      </trkpt>
      <trkpt lat="48.80602" lon="2.22502">
        <ele>226.32</ele>
        <time>2021-04-17T10:21:14.000Z</time>
      </trkpt>
      <trkpt lat="48.80606" lon="2.22515">
        <ele>226.41</ele>
        <time>2021-04-17T10:21:22.000Z</time>
      </trkpt>
      <trkpt lat="48.80613" lon="2.22524">
        <ele>226.46</ele>
        <time>2021-04-17T10:21:30.000Z</time>
      </trkpt>
      <trkpt lat="48.80613" lon="2.22538">
        <ele>226.55</ele>
        <time>2021-04-17T10:21:47.000Z</time>
      </trkpt>
      <trkpt lat="48.80613" lon="2.22551">
        <ele>226.56</ele>
        <time>2021-04-17T10:21:54.000Z</time>
      </trkpt>
      <trkpt lat="48.80616" lon="2.22565">
        <ele>226.55</ele>
        <time>2021-04-17T10:22:00.000Z</time>
      </trkpt>
      <trkpt lat="48.80622" lon="2.22576">
        <ele>226.53</ele>
        <time>2021-04-17T10:22:06.000Z</time>
      </trkpt>
      <trkpt lat="48.80626" lon="2.2259">
        <ele>226.48</ele>
        <time>2021-04-17T10:22:16.000Z</time>
      </trkpt>
      <trkpt lat="48.80632" lon="2.22603">
        <ele>226.45</ele>
        <time>2021-04-17T10:22:25.000Z</time>
      </trkpt>
      <trkpt lat="48.80638" lon="2.22613">
        <ele>226.44</ele>
        <time>2021-04-17T10:22:31.000Z</time>
      </trkpt>
      <trkpt lat="48.80648" lon="2.22617">
        <ele>226.4</ele>
        <time>2021-04-17T10:22:38.000Z</time>
      </trkpt>
      <trkpt lat="48.80654" lon="2.22629">
        <ele>226.33</ele>
        <time>2021-04-17T10:22:49.000Z</time>
      </trkpt>
      <trkpt lat="48.80664" lon="2.22636">
        <ele>226.23</ele>
        <time>2021-04-17T10:23:04.000Z</time>
      </trkpt>
      <trkpt lat="48.80672" lon="2.22643">
        <ele>226.16</ele>
        <time>2021-04-17T10:23:13.000Z</time>
      </trkpt>
      <trkpt lat="48.8068" lon="2.22647">
        <ele>226.12</ele>
        <time>2021-04-17T10:23:19.000Z</time>
      </trkpt>
      <trkpt lat="48.80688" lon="2.22656">
        <ele>226.06</ele>
        <time>2021-04-17T10:23:25.000Z</time>
      </trkpt>
      <trkpt lat="48.80694" lon="2.22667">
        <ele>226</ele>
        <time>2021-04-17T10:23:50.000Z</time>
      </trkpt>
      <trkpt lat="48.80697" lon="2.22681">
        <ele>225.99</ele>
        <time>2021-04-17T10:23:59.000Z</time>
      </trkpt>
      <trkpt lat="48.80699" lon="2.22695">
        <ele>225.98</ele>
        <time>2021-04-17T10:24:17.000Z</time>
      </trkpt>
      <trkpt lat="48.80703" lon="2.22708">
        <ele>225.79</ele>
        <time>2021-04-17T10:24:35.000Z</time>
      </trkpt>
      <trkpt lat="48.8071" lon="2.22717">
        <ele>225.52</ele>
        <time>2021-04-17T10:24:49.000Z</time>
      </trkpt>
      <trkpt lat="48.80719" lon="2.22724">
        <ele>225.02</ele>
        <time>2021-04-17T10:25:03.000Z</time>
      </trkpt>
      <trkpt lat="48.80729" lon="2.22727">
        <ele>224.23</ele>
        <time>2021-04-17T10:25:23.000Z</time>
      </trkpt>
      <trkpt lat="48.80739" lon="2.22728">
        <ele>223.9</ele>
        <time>2021-04-17T10:25:30.000Z</time>
      </trkpt>
      <trkpt lat="48.8075" lon="2.22729">
        <ele>223.63</ele>
        <time>2021-04-17T10:25:35.000Z</time>
      </trkpt>
      <trkpt lat="48.8076" lon="2.22732">
        <ele>223.43</ele>
        <time>2021-04-17T10:25:38.000Z</time>
      </trkpt>
      <trkpt lat="48.80769" lon="2.22735">
        <ele>223.11</ele>
        <time>2021-04-17T10:25:43.000Z</time>
      </trkpt>
      <trkpt lat="48.8078" lon="2.22735">
        <ele>222.74</ele>
        <time>2021-04-17T10:25:49.000Z</time>
      </trkpt>
      <trkpt lat="48.8079" lon="2.22737">
        <ele>222.45</ele>
        <time>2021-04-17T10:25:54.000Z</time>
      </trkpt>
      <trkpt lat="48.80799" lon="2.22738">
        <ele>222.09</ele>
        <time>2021-04-17T10:26:01.000Z</time>
      </trkpt>
      <trkpt lat="48.80808" lon="2.22738">
        <ele>221.66</ele>
        <time>2021-04-17T10:26:12.000Z</time>
      </trkpt>
      <trkpt lat="48.80818" lon="2.22736">
        <ele>221.35</ele>
        <time>2021-04-17T10:26:21.000Z</time>
      </trkpt>
      <trkpt lat="48.80827" lon="2.22737">
        <ele>221.1</ele>
        <time>2021-04-17T10:26:29.000Z</time>
      </trkpt>
      <trkpt lat="48.80836" lon="2.2273">
        <ele>220.81</ele>
        <time>2021-04-17T10:26:39.000Z</time>
      </trkpt>
      <trkpt lat="48.80845" lon="2.22737">
        <ele>220.54</ele>
        <time>2021-04-17T10:26:48.000Z</time>
      </trkpt>
      <trkpt lat="48.80853" lon="2.22732">
        <ele>220.24</ele>
        <time>2021-04-17T10:26:59.000Z</time>
      </trkpt>
      <trkpt lat="48.80863" lon="2.22734">
        <ele>220</ele>
        <time>2021-04-17T10:27:06.000Z</time>
      </trkpt>
      <trkpt lat="48.80872" lon="2.22742">
        <ele>219.68</ele>
        <time>2021-04-17T10:27:24.000Z</time>
      </trkpt>
      <trkpt lat="48.80881" lon="2.22749">
        <ele>219.57</ele>
        <time>2021-04-17T10:27:28.000Z</time>
      </trkpt>
      <trkpt lat="48.80889" lon="2.22757">
        <ele>219.33</ele>
        <time>2021-04-17T10:27:36.000Z</time>
      </trkpt>
      <trkpt lat="48.80898" lon="2.22762">
        <ele>218.9</ele>
        <time>2021-04-17T10:27:59.000Z</time>
      </trkpt>
      <trkpt lat="48.80908" lon="2.22764">
        <ele>218.73</ele>
        <time>2021-04-17T10:28:07.000Z</time>
      </trkpt>
      <trkpt lat="48.80917" lon="2.22766">
        <ele>218.66</ele>
        <time>2021-04-17T10:28:13.000Z</time>
      </trkpt>
      <trkpt lat="48.80926" lon="2.22767">
        <ele>218.56</ele>
        <time>2021-04-17T10:28:22.000Z</time>
      </trkpt>
      <trkpt lat="48.80936" lon="2.22765">
        <ele>218.42</ele>
        <time>2021-04-17T10:28:32.000Z</time>
      </trkpt>
      <trkpt lat="48.80945" lon="2.22772">
        <ele>218.33</ele>
        <time>2021-04-17T10:28:38.000Z</time>
      </trkpt>
      <trkpt lat="48.80954" lon="2.22777">
        <ele>218.11</ele>
        <time>2021-04-17T10:28:51.000Z</time>
      </trkpt>
      <trkpt lat="48.80963" lon="2.22781">
        <ele>217.93</ele>
        <time>2021-04-17T10:29:02.000Z</time>
      </trkpt>
      <trkpt lat="48.80972" lon="2.22779">
        <ele>217.83</ele>
        <time>2021-04-17T10:29:13.000Z</time>
      </trkpt>
      <trkpt lat="48.80982" lon="2.22781">
        <ele>217.68</ele>
        <time>2021-04-17T10:29:23.000Z</time>
      </trkpt>
      <trkpt lat="48.80991" lon="2.22786">
        <ele>217.56</ele>
        <time>2021-04-17T10:29:32.000Z</time>
      </trkpt>
      <trkpt lat="48.80997" lon="2.22799">
        <ele>217.38</ele>
        <time>2021-04-17T10:30:06.000Z</time>
      </trkpt>
      <trkpt lat="48.81001" lon="2.2281">
        <ele>217.34</ele>
        <time>2021-04-17T10:30:16.000Z</time>
      </trkpt>
      <trkpt lat="48.81006" lon="2.22823">
        <ele>217.37</ele>
        <time>2021-04-17T10:30:25.000Z</time>
      </trkpt>
      <trkpt lat="48.81011" lon="2.22836">
        <ele>217.48</ele>
        <time>2021-04-17T10:30:37.000Z</time>
      </trkpt>
      <trkpt lat="48.81013" lon="2.2285">
        <ele>217.59</ele>
        <time>2021-04-17T10:30:46.000Z</time>
      </trkpt>
      <trkpt lat="48.81014" lon="2.22864">
        <ele>217.72</ele>
        <time>2021-04-17T10:30:55.000Z</time>
      </trkpt>
      <trkpt lat="48.81015" lon="2.22879">
        <ele>217.84</ele>
        <time>2021-04-17T10:31:04.000Z</time>
      </trkpt>
      <trkpt lat="48.81016" lon="2.22893">
        <ele>217.95</ele>
        <time>2021-04-17T10:31:13.000Z</time>
      </trkpt>
      <trkpt lat="48.81018" lon="2.22907">
        <ele>218.03</ele>
        <time>2021-04-17T10:31:21.000Z</time>
      </trkpt>
      <trkpt lat="48.8102" lon="2.22921">
        <ele>218.14</ele>
        <time>2021-04-17T10:31:31.000Z</time>
      </trkpt>
      <trkpt lat="48.81019" lon="2.22937">
        <ele>218.27</ele>
        <time>2021-04-17T10:31:44.000Z</time>
      </trkpt>
      <trkpt lat="48.8102" lon="2.22952">
        <ele>218.37</ele>
        <time>2021-04-17T10:31:53.000Z</time>
      </trkpt>
      <trkpt lat="48.8102" lon="2.22968">
        <ele>218.48</ele>
        <time>2021-04-17T10:32:04.000Z</time>
      </trkpt>
      <trkpt lat="48.81022" lon="2.22981">
        <ele>218.55</ele>
        <time>2021-04-17T10:32:11.000Z</time>
      </trkpt>
      <trkpt lat="48.81028" lon="2.22992">
        <ele>218.62</ele>
        <time>2021-04-17T10:32:20.000Z</time>
      </trkpt>
      <trkpt lat="48.8103" lon="2.23006">
        <ele>218.64</ele>
        <time>2021-04-17T10:32:30.000Z</time>
      </trkpt>
      <trkpt lat="48.81033" lon="2.2302">
        <ele>218.63</ele>
        <time>2021-04-17T10:32:40.000Z</time>
      </trkpt>
      <trkpt lat="48.81037" lon="2.23033">
        <ele>218.61</ele>
        <time>2021-04-17T10:32:50.000Z</time>
      </trkpt>
      <trkpt lat="48.81046" lon="2.23036">
        <ele>218.51</ele>
        <time>2021-04-17T10:33:07.000Z</time>
      </trkpt>
      <trkpt lat="48.81056" lon="2.23034">
        <ele>218.27</ele>
        <time>2021-04-17T10:33:47.000Z</time>
      </trkpt>
      <trkpt lat="48.81065" lon="2.2303">
        <ele>218.07</ele>
        <time>2021-04-17T10:33:57.000Z</time>
      </trkpt>
      <trkpt lat="48.81074" lon="2.23031">
        <ele>217.79</ele>
        <time>2021-04-17T10:34:17.000Z</time>
      </trkpt>
      <trkpt lat="48.81084" lon="2.2303">
        <ele>217.63</ele>
        <time>2021-04-17T10:34:24.999Z</time>
      </trkpt>
      <trkpt lat="48.81093" lon="2.23031">
        <ele>217.48</ele>
        <time>2021-04-17T10:34:33.999Z</time>
      </trkpt>
      <trkpt lat="48.81102" lon="2.23031">
        <ele>217.3</ele>
        <time>2021-04-17T10:34:43.999Z</time>
      </trkpt>
      <trkpt lat="48.81112" lon="2.23033">
        <ele>217.1</ele>
        <time>2021-04-17T10:34:55.999Z</time>
      </trkpt>
      <trkpt lat="48.81121" lon="2.23032">
        <ele>216.9</ele>
        <time>2021-04-17T10:35:06.999Z</time>
      </trkpt>
      <trkpt lat="48.8113" lon="2.23032">
        <ele>216.69</ele>
        <time>2021-04-17T10:35:19.999Z</time>
      </trkpt>
      <trkpt lat="48.81139" lon="2.23026">
        <ele>216.56</ele>
        <time>2021-04-17T10:35:27.999Z</time>
      </trkpt>
      <trkpt lat="48.81148" lon="2.23023">
        <ele>216.37</ele>
        <time>2021-04-17T10:35:37.999Z</time>
      </trkpt>
      <trkpt lat="48.81158" lon="2.23022">
        <ele>216.15</ele>
        <time>2021-04-17T10:35:49.999Z</time>
      </trkpt>
      <trkpt lat="48.81168" lon="2.2302">
        <ele>215.96</ele>
        <time>2021-04-17T10:35:59.999Z</time>
      </trkpt>
      <trkpt lat="48.81178" lon="2.23022">
        <ele>215.67</ele>
        <time>2021-04-17T10:36:12.999Z</time>
      </trkpt>
      <trkpt lat="48.81186" lon="2.23014">
        <ele>215.56</ele>
        <time>2021-04-17T10:36:18.999Z</time>
      </trkpt>
      <trkpt lat="48.81192" lon="2.23023">
        <ele>215.37</ele>
        <time>2021-04-17T10:36:27.999Z</time>
      </trkpt>
      <trkpt lat="48.81186" lon="2.23035">
        <ele>215.11</ele>
        <time>2021-04-17T10:36:40.999Z</time>
      </trkpt>
      <trkpt lat="48.81177" lon="2.23044">
        <ele>215.04</ele>
        <time>2021-04-17T10:36:44.999Z</time>
      </trkpt>
      <trkpt lat="48.81168" lon="2.23051">
        <ele>214.93</ele>
        <time>2021-04-17T10:36:50.999Z</time>
      </trkpt>
      <trkpt lat="48.8116" lon="2.23058">
        <ele>214.81</ele>
        <time>2021-04-17T10:36:57.999Z</time>
      </trkpt>
      <trkpt lat="48.81151" lon="2.23063">
        <ele>214.66</ele>
        <time>2021-04-17T10:37:06.999Z</time>
      </trkpt>
      <trkpt lat="48.81143" lon="2.23069">
        <ele>214.53</ele>
        <time>2021-04-17T10:37:15.999Z</time>
      </trkpt>
      <trkpt lat="48.81134" lon="2.23072">
        <ele>214.42</ele>
        <time>2021-04-17T10:37:23.999Z</time>
      </trkpt>
      <trkpt lat="48.81125" lon="2.23081">
        <ele>214.27</ele>
        <time>2021-04-17T10:37:34.999Z</time>
      </trkpt>
      <trkpt lat="48.81114" lon="2.23084">
        <ele>214.18</ele>
        <time>2021-04-17T10:37:41.999Z</time>
      </trkpt>
      <trkpt lat="48.81105" lon="2.23088">
        <ele>214.05</ele>
        <time>2021-04-17T10:37:52.999Z</time>
      </trkpt>
      <trkpt lat="48.81095" lon="2.23096">
        <ele>213.95</ele>
        <time>2021-04-17T10:38:00.999Z</time>
      </trkpt>
      <trkpt lat="48.81085" lon="2.23101">
        <ele>213.85</ele>
        <time>2021-04-17T10:38:09.999Z</time>
      </trkpt>
      <trkpt lat="48.81077" lon="2.23109">
        <ele>213.77</ele>
        <time>2021-04-17T10:38:17.999Z</time>
      </trkpt>
      <trkpt lat="48.81068" lon="2.2311">
        <ele>213.66</ele>
        <time>2021-04-17T10:38:26.999Z</time>
      </trkpt>
      <trkpt lat="48.81058" lon="2.23112">
        <ele>213.54</ele>
        <time>2021-04-17T10:38:35.999Z</time>
      </trkpt>
      <trkpt lat="48.81049" lon="2.23118">
        <ele>213.44</ele>
        <time>2021-04-17T10:38:43.999Z</time>
      </trkpt>
      <trkpt lat="48.81039" lon="2.23121">
        <ele>213.3</ele>
        <time>2021-04-17T10:38:53.999Z</time>
      </trkpt>
      <trkpt lat="48.81029" lon="2.23124">
        <ele>213.19</ele>
        <time>2021-04-17T10:39:02.999Z</time>
      </trkpt>
      <trkpt lat="48.8102" lon="2.23131">
        <ele>213.1</ele>
        <time>2021-04-17T10:39:10.999Z</time>
      </trkpt>
      <trkpt lat="48.81012" lon="2.23138">
        <ele>213</ele>
        <time>2021-04-17T10:39:20.999Z</time>
      </trkpt>
      <trkpt lat="48.81002" lon="2.23141">
        <ele>212.89</ele>
        <time>2021-04-17T10:39:30.999Z</time>
      </trkpt>
      <trkpt lat="48.80994" lon="2.23146">
        <ele>212.8</ele>
        <time>2021-04-17T10:39:39.999Z</time>
      </trkpt>
      <trkpt lat="48.80985" lon="2.23152">
        <ele>212.73</ele>
        <time>2021-04-17T10:39:46.999Z</time>
      </trkpt>
      <trkpt lat="48.80977" lon="2.23159">
        <ele>212.63</ele>
        <time>2021-04-17T10:39:55.999Z</time>
      </trkpt>
      <trkpt lat="48.8097" lon="2.23168">
        <ele>212.53</ele>
        <time>2021-04-17T10:40:04.999Z</time>
      </trkpt>
      <trkpt lat="48.80962" lon="2.23173">
        <ele>212.44</ele>
        <time>2021-04-17T10:40:12.999Z</time>
      </trkpt>
      <trkpt lat="48.80952" lon="2.23178">
        <ele>212.35</ele>
        <time>2021-04-17T10:40:20.999Z</time>
      </trkpt>
      <trkpt lat="48.80942" lon="2.23182">
        <ele>212.23</ele>
        <time>2021-04-17T10:40:29.999Z</time>
      </trkpt>
      <trkpt lat="48.80933" lon="2.23185">
        <ele>212.08</ele>
        <time>2021-04-17T10:40:39.999Z</time>
      </trkpt>
      <trkpt lat="48.80925" lon="2.23192">
        <ele>211.79</ele>
        <time>2021-04-17T10:41:01.999Z</time>
      </trkpt>
      <trkpt lat="48.80916" lon="2.23195">
        <ele>211.46</ele>
        <time>2021-04-17T10:41:26.999Z</time>
      </trkpt>
      <trkpt lat="48.80914" lon="2.2321">
        <ele>210.65</ele>
        <time>2021-04-17T10:42:20.999Z</time>
      </trkpt>
      <trkpt lat="48.80913" lon="2.23223">
        <ele>210.34</ele>
        <time>2021-04-17T10:42:32.999Z</time>
      </trkpt>
      <trkpt lat="48.80911" lon="2.23238">
        <ele>210.12</ele>
        <time>2021-04-17T10:42:52.999Z</time>
      </trkpt>
      <trkpt lat="48.80909" lon="2.23253">
        <ele>209.88</ele>
        <time>2021-04-17T10:43:06.999Z</time>
      </trkpt>
      <trkpt lat="48.80902" lon="2.2327">
        <ele>209.31</ele>
        <time>2021-04-17T10:43:58.999Z</time>
      </trkpt>
      <trkpt lat="48.80893" lon="2.23274">
        <ele>209.18</ele>
        <time>2021-04-17T10:44:07.999Z</time>
      </trkpt>
      <trkpt lat="48.80883" lon="2.23274">
        <ele>209.01</ele>
        <time>2021-04-17T10:44:23.999Z</time>
      </trkpt>
      <trkpt lat="48.80873" lon="2.23272">
        <ele>208.88</ele>
        <time>2021-04-17T10:45:12.999Z</time>
      </trkpt>
      <trkpt lat="48.80864" lon="2.23276">
        <ele>208.87</ele>
        <time>2021-04-17T10:45:28.999Z</time>
      </trkpt>
      <trkpt lat="48.80855" lon="2.2328">
        <ele>208.84</ele>
        <time>2021-04-17T10:45:39.999Z</time>
      </trkpt>
      <trkpt lat="48.80846" lon="2.23278">
        <ele>208.79</ele>
        <time>2021-04-17T10:45:52.999Z</time>
      </trkpt>
      <trkpt lat="48.80838" lon="2.23284">
        <ele>208.71</ele>
        <time>2021-04-17T10:46:21.999Z</time>
      </trkpt>
      <trkpt lat="48.80829" lon="2.23284">
        <ele>208.67</ele>
        <time>2021-04-17T10:46:28.999Z</time>
      </trkpt>
      <trkpt lat="48.80819" lon="2.23286">
        <ele>208.6</ele>
        <time>2021-04-17T10:46:38.999Z</time>
      </trkpt>
      <trkpt lat="48.8081" lon="2.23288">
        <ele>208.5</ele>
        <time>2021-04-17T10:47:00.999Z</time>
      </trkpt>
      <trkpt lat="48.808" lon="2.2329">
        <ele>208.38</ele>
        <time>2021-04-17T10:47:13.999Z</time>
      </trkpt>
      <trkpt lat="48.80791" lon="2.23293">
        <ele>208.3</ele>
        <time>2021-04-17T10:47:21.999Z</time>
      </trkpt>
      <trkpt lat="48.80783" lon="2.23297">
        <ele>208.22</ele>
        <time>2021-04-17T10:47:28.999Z</time>
      </trkpt>
      <trkpt lat="48.80773" lon="2.233">
        <ele>208.09</ele>
        <time>2021-04-17T10:47:39.999Z</time>
      </trkpt>
      <trkpt lat="48.80764" lon="2.233">
        <ele>208.01</ele>
        <time>2021-04-17T10:47:47.999Z</time>
      </trkpt>
      <trkpt lat="48.80757" lon="2.2331">
        <ele>207.92</ele>
        <time>2021-04-17T10:48:03.999Z</time>
      </trkpt>
      <trkpt lat="48.80748" lon="2.23308">
        <ele>207.68</ele>
        <time>2021-04-17T10:48:26.999Z</time>
      </trkpt>
      <trkpt lat="48.80739" lon="2.23309">
        <ele>207.57</ele>
        <time>2021-04-17T10:48:34.999Z</time>
      </trkpt>
      <trkpt lat="48.8073" lon="2.2331">
        <ele>207.43</ele>
        <time>2021-04-17T10:48:46.999Z</time>
      </trkpt>
      <trkpt lat="48.8072" lon="2.23312">
        <ele>207.29</ele>
        <time>2021-04-17T10:49:07.999Z</time>
      </trkpt>
      <trkpt lat="48.80711" lon="2.23312">
        <ele>207.13</ele>
        <time>2021-04-17T10:49:52.999Z</time>
      </trkpt>
      <trkpt lat="48.80707" lon="2.233">
        <ele>206.61</ele>
        <time>2021-04-17T10:51:14.999Z</time>
      </trkpt>
      <trkpt lat="48.80671" lon="2.23317">
        <ele>198.85</ele>
        <time>2021-04-17T11:26:24.000Z</time>
      </trkpt>
      <trkpt lat="48.80672" lon="2.23331">
        <ele>200.13</ele>
        <time>2021-04-17T11:27:00.000Z</time>
      </trkpt>
      <trkpt lat="48.80682" lon="2.23331">
        <ele>200.34</ele>
        <time>2021-04-17T11:27:12.000Z</time>
      </trkpt>
      <trkpt lat="48.80673" lon="2.23338">
        <ele>200.39</ele>
        <time>2021-04-17T11:27:57.000Z</time>
      </trkpt>
      <trkpt lat="48.80665" lon="2.23342">
        <ele>200.33</ele>
        <time>2021-04-17T11:28:06.000Z</time>
      </trkpt>
      <trkpt lat="48.80656" lon="2.23344">
        <ele>200.27</ele>
        <time>2021-04-17T11:28:13.000Z</time>
      </trkpt>
      <trkpt lat="48.80649" lon="2.23353">
        <ele>200.1</ele>
        <time>2021-04-17T11:28:28.000Z</time>
      </trkpt>
      <trkpt lat="48.80641" lon="2.23359">
        <ele>200.01</ele>
        <time>2021-04-17T11:28:34.000Z</time>
      </trkpt>
      <trkpt lat="48.80632" lon="2.23359">
        <ele>199.88</ele>
        <time>2021-04-17T11:28:45.000Z</time>
      </trkpt>
      <trkpt lat="48.80623" lon="2.23363">
        <ele>199.74</ele>
        <time>2021-04-17T11:28:57.000Z</time>
      </trkpt>
      <trkpt lat="48.80613" lon="2.23368">
        <ele>199.61</ele>
        <time>2021-04-17T11:29:08.000Z</time>
      </trkpt>
      <trkpt lat="48.80604" lon="2.23368">
        <ele>199.53</ele>
        <time>2021-04-17T11:29:16.000Z</time>
      </trkpt>
      <trkpt lat="48.80595" lon="2.23373">
        <ele>199.44</ele>
        <time>2021-04-17T11:29:26.000Z</time>
      </trkpt>
      <trkpt lat="48.80586" lon="2.23377">
        <ele>199.33</ele>
        <time>2021-04-17T11:29:37.000Z</time>
      </trkpt>
      <trkpt lat="48.80577" lon="2.23374">
        <ele>199.1</ele>
        <time>2021-04-17T11:29:53.000Z</time>
      </trkpt>
      <trkpt lat="48.80568" lon="2.23378">
        <ele>198.92</ele>
        <time>2021-04-17T11:30:04.000Z</time>
      </trkpt>
      <trkpt lat="48.80559" lon="2.23381">
        <ele>198.75</ele>
        <time>2021-04-17T11:30:15.000Z</time>
      </trkpt>
      <trkpt lat="48.8055" lon="2.23376">
        <ele>198.61</ele>
        <time>2021-04-17T11:30:23.000Z</time>
      </trkpt>
      <trkpt lat="48.80541" lon="2.23371">
        <ele>198.44</ele>
        <time>2021-04-17T11:30:36.000Z</time>
      </trkpt>
      <trkpt lat="48.80536" lon="2.23359">
        <ele>198.17</ele>
        <time>2021-04-17T11:30:59.000Z</time>
      </trkpt>
      <trkpt lat="48.80528" lon="2.23355">
        <ele>198.09</ele>
        <time>2021-04-17T11:31:10.000Z</time>
      </trkpt>
      <trkpt lat="48.80518" lon="2.23348">
        <ele>197.99</ele>
        <time>2021-04-17T11:31:24.000Z</time>
      </trkpt>
      <trkpt lat="48.80508" lon="2.23347">
        <ele>197.96</ele>
        <time>2021-04-17T11:31:34.000Z</time>
      </trkpt>
      <trkpt lat="48.80499" lon="2.23354">
        <ele>197.89</ele>
        <time>2021-04-17T11:31:41.000Z</time>
      </trkpt>
      <trkpt lat="48.8049" lon="2.23359">
        <ele>197.82</ele>
        <time>2021-04-17T11:31:51.000Z</time>
      </trkpt>
      <trkpt lat="48.80481" lon="2.23359">
        <ele>197.71</ele>
        <time>2021-04-17T11:32:06.000Z</time>
      </trkpt>
      <trkpt lat="48.80471" lon="2.23359">
        <ele>197.53</ele>
        <time>2021-04-17T11:32:26.000Z</time>
      </trkpt>
      <trkpt lat="48.80465" lon="2.23372">
        <ele>197.46</ele>
        <time>2021-04-17T11:32:31.000Z</time>
      </trkpt>
      <trkpt lat="48.80457" lon="2.23377">
        <ele>197.35</ele>
        <time>2021-04-17T11:32:41.000Z</time>
      </trkpt>
      <trkpt lat="48.80447" lon="2.23374">
        <ele>197.12</ele>
        <time>2021-04-17T11:33:00.000Z</time>
      </trkpt>
      <trkpt lat="48.80438" lon="2.23381">
        <ele>197.02</ele>
        <time>2021-04-17T11:33:07.000Z</time>
      </trkpt>
      <trkpt lat="48.80429" lon="2.23383">
        <ele>196.87</ele>
        <time>2021-04-17T11:33:16.000Z</time>
      </trkpt>
      <trkpt lat="48.8042" lon="2.23387">
        <ele>196.7</ele>
        <time>2021-04-17T11:33:25.000Z</time>
      </trkpt>
      <trkpt lat="48.80411" lon="2.23393">
        <ele>196.51</ele>
        <time>2021-04-17T11:33:34.000Z</time>
      </trkpt>
      <trkpt lat="48.80402" lon="2.23394">
        <ele>196.27</ele>
        <time>2021-04-17T11:33:45.000Z</time>
      </trkpt>
      <trkpt lat="48.80394" lon="2.23402">
        <ele>195.96</ele>
        <time>2021-04-17T11:34:00.000Z</time>
      </trkpt>
      <trkpt lat="48.80384" lon="2.23405">
        <ele>195.7</ele>
        <time>2021-04-17T11:34:10.000Z</time>
      </trkpt>
      <trkpt lat="48.80375" lon="2.23408">
        <ele>195.52</ele>
        <time>2021-04-17T11:34:17.000Z</time>
      </trkpt>
      <trkpt lat="48.80365" lon="2.23412">
        <ele>195.29</ele>
        <time>2021-04-17T11:34:25.000Z</time>
      </trkpt>
      <trkpt lat="48.80357" lon="2.23419">
        <ele>195.02</ele>
        <time>2021-04-17T11:34:34.000Z</time>
      </trkpt>
      <trkpt lat="48.80348" lon="2.23413">
        <ele>194.72</ele>
        <time>2021-04-17T11:34:46.000Z</time>
      </trkpt>
      <trkpt lat="48.80344" lon="2.23427">
        <ele>194.46</ele>
        <time>2021-04-17T11:34:55.000Z</time>
      </trkpt>
      <trkpt lat="48.80336" lon="2.23436">
        <ele>194.18</ele>
        <time>2021-04-17T11:35:03.000Z</time>
      </trkpt>
      <trkpt lat="48.80327" lon="2.23442">
        <ele>193.46</ele>
        <time>2021-04-17T11:35:27.000Z</time>
      </trkpt>
      <trkpt lat="48.80324" lon="2.23456">
        <ele>193.04</ele>
        <time>2021-04-17T11:35:37.000Z</time>
      </trkpt>
      <trkpt lat="48.80321" lon="2.2347">
        <ele>192.63</ele>
        <time>2021-04-17T11:35:48.000Z</time>
      </trkpt>
      <trkpt lat="48.8032" lon="2.23484">
        <ele>192.36</ele>
        <time>2021-04-17T11:35:57.000Z</time>
      </trkpt>
      <trkpt lat="48.80321" lon="2.23497">
        <ele>191.97</ele>
        <time>2021-04-17T11:36:10.000Z</time>
      </trkpt>
      <trkpt lat="48.80324" lon="2.23512">
        <ele>191.61</ele>
        <time>2021-04-17T11:36:21.000Z</time>
      </trkpt>
      <trkpt lat="48.80326" lon="2.23527">
        <ele>191.37</ele>
        <time>2021-04-17T11:36:28.000Z</time>
      </trkpt>
      <trkpt lat="48.80324" lon="2.23542">
        <ele>191.12</ele>
        <time>2021-04-17T11:36:35.000Z</time>
      </trkpt>
      <trkpt lat="48.80319" lon="2.23556">
        <ele>190.51</ele>
        <time>2021-04-17T11:36:49.000Z</time>
      </trkpt>
      <trkpt lat="48.80315" lon="2.23569">
        <ele>190.08</ele>
        <time>2021-04-17T11:36:57.000Z</time>
      </trkpt>
      <trkpt lat="48.80308" lon="2.23578">
        <ele>189.16</ele>
        <time>2021-04-17T11:37:13.000Z</time>
      </trkpt>
      <trkpt lat="48.80306" lon="2.23594">
        <ele>188.6</ele>
        <time>2021-04-17T11:37:20.000Z</time>
      </trkpt>
      <trkpt lat="48.80302" lon="2.23607">
        <ele>187.32</ele>
        <time>2021-04-17T11:37:33.000Z</time>
      </trkpt>
      <trkpt lat="48.80297" lon="2.23619">
        <ele>185.84</ele>
        <time>2021-04-17T11:37:46.000Z</time>
      </trkpt>
      <trkpt lat="48.80291" lon="2.23632">
        <ele>184.67</ele>
        <time>2021-04-17T11:37:56.000Z</time>
      </trkpt>
      <trkpt lat="48.80285" lon="2.23643">
        <ele>183.41</ele>
        <time>2021-04-17T11:38:06.000Z</time>
      </trkpt>
      <trkpt lat="48.80275" lon="2.23654">
        <ele>182.62</ele>
        <time>2021-04-17T11:38:13.000Z</time>
      </trkpt>
      <trkpt lat="48.80268" lon="2.23667">
        <ele>182.03</ele>
        <time>2021-04-17T11:38:20.000Z</time>
      </trkpt>
      <trkpt lat="48.80265" lon="2.2368">
        <ele>180.76</ele>
        <time>2021-04-17T11:38:36.000Z</time>
      </trkpt>
      <trkpt lat="48.80262" lon="2.23694">
        <ele>180.3</ele>
        <time>2021-04-17T11:38:42.000Z</time>
      </trkpt>
      <trkpt lat="48.8026" lon="2.23707">
        <ele>179.86</ele>
        <time>2021-04-17T11:38:48.000Z</time>
      </trkpt>
      <trkpt lat="48.8026" lon="2.23722">
        <ele>179.5</ele>
        <time>2021-04-17T11:38:53.000Z</time>
      </trkpt>
      <trkpt lat="48.80259" lon="2.23737">
        <ele>179.03</ele>
        <time>2021-04-17T11:38:59.000Z</time>
      </trkpt>
      <trkpt lat="48.80261" lon="2.23753">
        <ele>178.53</ele>
        <time>2021-04-17T11:39:05.000Z</time>
      </trkpt>
      <trkpt lat="48.80251" lon="2.2376">
        <ele>176.35</ele>
        <time>2021-04-17T11:39:27.000Z</time>
      </trkpt>
      <trkpt lat="48.80241" lon="2.23765">
        <ele>175.86</ele>
        <time>2021-04-17T11:39:33.000Z</time>
      </trkpt>
      <trkpt lat="48.80238" lon="2.2378">
        <ele>175.27</ele>
        <time>2021-04-17T11:39:41.000Z</time>
      </trkpt>
      <trkpt lat="48.80241" lon="2.23794">
        <ele>174.99</ele>
        <time>2021-04-17T11:39:45.000Z</time>
      </trkpt>
      <trkpt lat="48.80248" lon="2.23805">
        <ele>174.74</ele>
        <time>2021-04-17T11:39:49.000Z</time>
      </trkpt>
      <trkpt lat="48.80247" lon="2.2382">
        <ele>173.57</ele>
        <time>2021-04-17T11:40:04.000Z</time>
      </trkpt>
      <trkpt lat="48.80245" lon="2.23835">
        <ele>172.84</ele>
        <time>2021-04-17T11:40:12.000Z</time>
      </trkpt>
      <trkpt lat="48.8024" lon="2.23848">
        <ele>172.3</ele>
        <time>2021-04-17T11:40:17.000Z</time>
      </trkpt>
      <trkpt lat="48.80241" lon="2.23862">
        <ele>171.73</ele>
        <time>2021-04-17T11:40:22.000Z</time>
      </trkpt>
      <trkpt lat="48.80236" lon="2.23879">
        <ele>171.2</ele>
        <time>2021-04-17T11:40:27.000Z</time>
      </trkpt>
      <trkpt lat="48.80229" lon="2.23892">
        <ele>170.35</ele>
        <time>2021-04-17T11:40:36.000Z</time>
      </trkpt>
      <trkpt lat="48.80226" lon="2.2391">
        <ele>169.65</ele>
        <time>2021-04-17T11:40:44.000Z</time>
      </trkpt>
      <trkpt lat="48.80224" lon="2.23923">
        <ele>169.04</ele>
        <time>2021-04-17T11:40:52.000Z</time>
      </trkpt>
      <trkpt lat="48.80221" lon="2.23937">
        <ele>168.37</ele>
        <time>2021-04-17T11:41:00.000Z</time>
      </trkpt>
      <trkpt lat="48.80216" lon="2.23947">
        <ele>167.44</ele>
        <time>2021-04-17T11:41:13.000Z</time>
      </trkpt>
      <trkpt lat="48.80215" lon="2.23963">
        <ele>166.56</ele>
        <time>2021-04-17T11:41:27.000Z</time>
      </trkpt>
      <trkpt lat="48.80212" lon="2.23976">
        <ele>165.94</ele>
        <time>2021-04-17T11:41:38.000Z</time>
      </trkpt>
      <trkpt lat="48.8021" lon="2.2399">
        <ele>165.27</ele>
        <time>2021-04-17T11:41:53.000Z</time>
      </trkpt>
      <trkpt lat="48.80209" lon="2.24004">
        <ele>164.78</ele>
        <time>2021-04-17T11:42:08.000Z</time>
      </trkpt>
      <trkpt lat="48.80206" lon="2.24017">
        <ele>164.53</ele>
        <time>2021-04-17T11:42:16.000Z</time>
      </trkpt>
      <trkpt lat="48.80207" lon="2.24031">
        <ele>164.12</ele>
        <time>2021-04-17T11:42:32.000Z</time>
      </trkpt>
      <trkpt lat="48.80204" lon="2.24046">
        <ele>163.88</ele>
        <time>2021-04-17T11:42:44.999Z</time>
      </trkpt>
      <trkpt lat="48.80197" lon="2.24057">
        <ele>163.75</ele>
        <time>2021-04-17T11:42:51.999Z</time>
      </trkpt>
      <trkpt lat="48.80199" lon="2.2407">
        <ele>163.49</ele>
        <time>2021-04-17T11:43:06.999Z</time>
      </trkpt>
      <trkpt lat="48.80204" lon="2.24085">
        <ele>163.31</ele>
        <time>2021-04-17T11:43:12.999Z</time>
      </trkpt>
      <trkpt lat="48.80204" lon="2.24099">
        <ele>163.06</ele>
        <time>2021-04-17T11:43:20.999Z</time>
      </trkpt>
      <trkpt lat="48.80198" lon="2.24113">
        <ele>162.78</ele>
        <time>2021-04-17T11:43:34.999Z</time>
      </trkpt>
      <trkpt lat="48.80195" lon="2.24128">
        <ele>162.23</ele>
        <time>2021-04-17T11:44:21.999Z</time>
      </trkpt>
      <trkpt lat="48.80195" lon="2.24144">
        <ele>162.03</ele>
        <time>2021-04-17T11:44:30.999Z</time>
      </trkpt>
      <trkpt lat="48.80196" lon="2.24157">
        <ele>161.9</ele>
        <time>2021-04-17T11:44:36.999Z</time>
      </trkpt>
      <trkpt lat="48.80199" lon="2.24171">
        <ele>161.77</ele>
        <time>2021-04-17T11:44:44.999Z</time>
      </trkpt>
      <trkpt lat="48.80198" lon="2.24187">
        <ele>161.56</ele>
        <time>2021-04-17T11:44:59.999Z</time>
      </trkpt>
      <trkpt lat="48.80193" lon="2.24198">
        <ele>161.49</ele>
        <time>2021-04-17T11:45:08.999Z</time>
      </trkpt>
      <trkpt lat="48.80186" lon="2.2421">
        <ele>161.47</ele>
        <time>2021-04-17T11:45:19.999Z</time>
      </trkpt>
      <trkpt lat="48.80184" lon="2.24223">
        <ele>161.5</ele>
        <time>2021-04-17T11:45:27.999Z</time>
      </trkpt>
      <trkpt lat="48.80185" lon="2.24237">
        <ele>161.55</ele>
        <time>2021-04-17T11:45:42.999Z</time>
      </trkpt>
      <trkpt lat="48.80186" lon="2.24251">
        <ele>161.6</ele>
        <time>2021-04-17T11:45:55.999Z</time>
      </trkpt>
      <trkpt lat="48.80187" lon="2.24266">
        <ele>161.65</ele>
        <time>2021-04-17T11:46:04.999Z</time>
      </trkpt>
      <trkpt lat="48.80187" lon="2.2428">
        <ele>161.71</ele>
        <time>2021-04-17T11:46:12.999Z</time>
      </trkpt>
      <trkpt lat="48.80191" lon="2.24291">
        <ele>161.79</ele>
        <time>2021-04-17T11:46:26.999Z</time>
      </trkpt>
      <trkpt lat="48.80193" lon="2.24305">
        <ele>161.75</ele>
        <time>2021-04-17T11:46:40.999Z</time>
      </trkpt>
      <trkpt lat="48.8019" lon="2.24319">
        <ele>161.62</ele>
        <time>2021-04-17T11:46:52.999Z</time>
      </trkpt>
      <trkpt lat="48.80192" lon="2.24333">
        <ele>161.5</ele>
        <time>2021-04-17T11:47:05.999Z</time>
      </trkpt>
      <trkpt lat="48.80195" lon="2.24348">
        <ele>161.39</ele>
        <time>2021-04-17T11:47:17.999Z</time>
      </trkpt>
      <trkpt lat="48.80202" lon="2.24356">
        <ele>161.32</ele>
        <time>2021-04-17T11:47:25.999Z</time>
      </trkpt>
      <trkpt lat="48.80203" lon="2.24371">
        <ele>161.19</ele>
        <time>2021-04-17T11:47:40.999Z</time>
      </trkpt>
      <trkpt lat="48.80199" lon="2.24385">
        <ele>161.23</ele>
        <time>2021-04-17T11:48:05.999Z</time>
      </trkpt>
      <trkpt lat="48.80199" lon="2.244">
        <ele>161.1</ele>
        <time>2021-04-17T11:48:18.999Z</time>
      </trkpt>
      <trkpt lat="48.80201" lon="2.24414">
        <ele>160.93</ele>
        <time>2021-04-17T11:48:26.999Z</time>
      </trkpt>
      <trkpt lat="48.8021" lon="2.24412">
        <ele>160.5</ele>
        <time>2021-04-17T11:48:41.999Z</time>
      </trkpt>
      <trkpt lat="48.80219" lon="2.24416">
        <ele>159.86</ele>
        <time>2021-04-17T11:48:54.999Z</time>
      </trkpt>
      <trkpt lat="48.80225" lon="2.24426">
        <ele>159.22</ele>
        <time>2021-04-17T11:49:06.999Z</time>
      </trkpt>
      <trkpt lat="48.80227" lon="2.24441">
        <ele>158.77</ele>
        <time>2021-04-17T11:49:23.999Z</time>
      </trkpt>
      <trkpt lat="48.80231" lon="2.24455">
        <ele>158.79</ele>
        <time>2021-04-17T11:49:32.999Z</time>
      </trkpt>
      <trkpt lat="48.80235" lon="2.24468">
        <ele>158.89</ele>
        <time>2021-04-17T11:49:41.999Z</time>
      </trkpt>
      <trkpt lat="48.80237" lon="2.24484">
        <ele>159.15</ele>
        <time>2021-04-17T11:49:54.999Z</time>
      </trkpt>
      <trkpt lat="48.8024" lon="2.24497">
        <ele>159.4</ele>
        <time>2021-04-17T11:50:03.999Z</time>
      </trkpt>
      <trkpt lat="48.8024" lon="2.24511">
        <ele>159.65</ele>
        <time>2021-04-17T11:50:17.999Z</time>
      </trkpt>
      <trkpt lat="48.8024" lon="2.24525">
        <ele>160.24</ele>
        <time>2021-04-17T11:50:28.999Z</time>
      </trkpt>
      <trkpt lat="48.80241" lon="2.2454">
        <ele>160.94</ele>
        <time>2021-04-17T11:50:38.999Z</time>
      </trkpt>
      <trkpt lat="48.80241" lon="2.24554">
        <ele>161.46</ele>
        <time>2021-04-17T11:50:45.999Z</time>
      </trkpt>
      <trkpt lat="48.80246" lon="2.24565">
        <ele>163.87</ele>
        <time>2021-04-17T11:51:35.999Z</time>
      </trkpt>
      <trkpt lat="48.80253" lon="2.24575">
        <ele>166.85</ele>
        <time>2021-04-17T11:53:00.999Z</time>
      </trkpt>
      <trkpt lat="48.80256" lon="2.24588">
        <ele>166.9</ele>
        <time>2021-04-17T11:53:07.999Z</time>
      </trkpt>
      <trkpt lat="48.80257" lon="2.24603">
        <ele>167.1</ele>
        <time>2021-04-17T11:53:21.999Z</time>
      </trkpt>
      <trkpt lat="48.80259" lon="2.24621">
        <ele>167.39</ele>
        <time>2021-04-17T11:53:33.999Z</time>
      </trkpt>
      <trkpt lat="48.80259" lon="2.24634">
        <ele>167.6</ele>
        <time>2021-04-17T11:53:39.999Z</time>
      </trkpt>
      <trkpt lat="48.80264" lon="2.24647">
        <ele>167.85</ele>
        <time>2021-04-17T11:53:47.999Z</time>
      </trkpt>
      <trkpt lat="48.80268" lon="2.24659">
        <ele>168.14</ele>
        <time>2021-04-17T11:53:58.999Z</time>
      </trkpt>
      <trkpt lat="48.80272" lon="2.24673">
        <ele>168.53</ele>
        <time>2021-04-17T11:54:08.999Z</time>
      </trkpt>
      <trkpt lat="48.80274" lon="2.24688">
        <ele>168.88</ele>
        <time>2021-04-17T11:54:16.999Z</time>
      </trkpt>
      <trkpt lat="48.80275" lon="2.24703">
        <ele>169.39</ele>
        <time>2021-04-17T11:54:25.999Z</time>
      </trkpt>
      <trkpt lat="48.80275" lon="2.24717">
        <ele>170.09</ele>
        <time>2021-04-17T11:54:35.999Z</time>
      </trkpt>
      <trkpt lat="48.8027" lon="2.24729">
        <ele>171.14</ele>
        <time>2021-04-17T11:54:57.999Z</time>
      </trkpt>
      <trkpt lat="48.80277" lon="2.24739">
        <ele>172.37</ele>
        <time>2021-04-17T11:55:23.999Z</time>
      </trkpt>
      <trkpt lat="48.80282" lon="2.24752">
        <ele>174.06</ele>
        <time>2021-04-17T11:55:42.999Z</time>
      </trkpt>
      <trkpt lat="48.8029" lon="2.24761">
        <ele>174.41</ele>
        <time>2021-04-17T11:55:47.999Z</time>
      </trkpt>
      <trkpt lat="48.80292" lon="2.24774">
        <ele>174.82</ele>
        <time>2021-04-17T11:55:53.999Z</time>
      </trkpt>
      <trkpt lat="48.8029" lon="2.24788">
        <ele>175.37</ele>
        <time>2021-04-17T11:56:00.999Z</time>
      </trkpt>
      <trkpt lat="48.80287" lon="2.24801">
        <ele>176.16</ele>
        <time>2021-04-17T11:56:10.999Z</time>
      </trkpt>
      <trkpt lat="48.80287" lon="2.24815">
        <ele>176.67</ele>
        <time>2021-04-17T11:56:17.999Z</time>
      </trkpt>
      <trkpt lat="48.80286" lon="2.24829">
        <ele>177.23</ele>
        <time>2021-04-17T11:56:26.999Z</time>
      </trkpt>
      <trkpt lat="48.8028" lon="2.2484">
        <ele>177.87</ele>
        <time>2021-04-17T11:56:34.999Z</time>
      </trkpt>
      <trkpt lat="48.80271" lon="2.24842">
        <ele>179.42</ele>
        <time>2021-04-17T11:56:55.999Z</time>
      </trkpt>
      <trkpt lat="48.80262" lon="2.2484">
        <ele>180.5</ele>
        <time>2021-04-17T11:57:04.999Z</time>
      </trkpt>
      <trkpt lat="48.80252" lon="2.2484">
        <ele>181.75</ele>
        <time>2021-04-17T11:57:16.999Z</time>
      </trkpt>
      <trkpt lat="48.80242" lon="2.24845">
        <ele>182.51</ele>
        <time>2021-04-17T11:57:26.999Z</time>
      </trkpt>
      <trkpt lat="48.80233" lon="2.24852">
        <ele>183.12</ele>
        <time>2021-04-17T11:57:35.999Z</time>
      </trkpt>
      <trkpt lat="48.80222" lon="2.24856">
        <ele>183.48</ele>
        <time>2021-04-17T11:57:41.999Z</time>
      </trkpt>
      <trkpt lat="48.80213" lon="2.24854">
        <ele>184.06</ele>
        <time>2021-04-17T11:57:52.999Z</time>
      </trkpt>
      <trkpt lat="48.80204" lon="2.24856">
        <ele>184.52</ele>
        <time>2021-04-17T11:58:04.999Z</time>
      </trkpt>
      <trkpt lat="48.80195" lon="2.2485">
        <ele>184.73</ele>
        <time>2021-04-17T11:58:10.999Z</time>
      </trkpt>
      <trkpt lat="48.80187" lon="2.24855">
        <ele>185.02</ele>
        <time>2021-04-17T11:58:20.999Z</time>
      </trkpt>
      <trkpt lat="48.80178" lon="2.2486">
        <ele>185.22</ele>
        <time>2021-04-17T11:58:26.999Z</time>
      </trkpt>
      <trkpt lat="48.80169" lon="2.24861">
        <ele>185.56</ele>
        <time>2021-04-17T11:58:39.999Z</time>
      </trkpt>
      <trkpt lat="48.80164" lon="2.24874">
        <ele>185.89</ele>
        <time>2021-04-17T11:58:54.999Z</time>
      </trkpt>
      <trkpt lat="48.80174" lon="2.24884">
        <ele>186</ele>
        <time>2021-04-17T11:59:03.999Z</time>
      </trkpt>
      <trkpt lat="48.80178" lon="2.24898">
        <ele>186.02</ele>
        <time>2021-04-17T11:59:09.999Z</time>
      </trkpt>
      <trkpt lat="48.80175" lon="2.24885">
        <ele>186.05</ele>
        <time>2021-04-17T11:59:21.999Z</time>
      </trkpt>
      <trkpt lat="48.80187" lon="2.24883">
        <ele>186.04</ele>
        <time>2021-04-17T11:59:26.999Z</time>
      </trkpt>
      <trkpt lat="48.8018" lon="2.24892">
        <ele>186</ele>
        <time>2021-04-17T12:00:14.999Z</time>
      </trkpt>
      <trkpt lat="48.8017" lon="2.24883">
        <ele>186.03</ele>
        <time>2021-04-17T12:00:20.999Z</time>
      </trkpt>
      <trkpt lat="48.80161" lon="2.24882">
        <ele>186.13</ele>
        <time>2021-04-17T12:00:31.999Z</time>
      </trkpt>
      <trkpt lat="48.80155" lon="2.2487">
        <ele>186.23</ele>
        <time>2021-04-17T12:00:48.999Z</time>
      </trkpt>
      <trkpt lat="48.8015" lon="2.24858">
        <ele>186.3</ele>
        <time>2021-04-17T12:01:01.999Z</time>
      </trkpt>
      <trkpt lat="48.80138" lon="2.24857">
        <ele>186.36</ele>
        <time>2021-04-17T12:01:07.999Z</time>
      </trkpt>
      <trkpt lat="48.80128" lon="2.24854">
        <ele>186.55</ele>
        <time>2021-04-17T12:01:19.999Z</time>
      </trkpt>
      <trkpt lat="48.80119" lon="2.24854">
        <ele>186.71</ele>
        <time>2021-04-17T12:01:27.999Z</time>
      </trkpt>
      <trkpt lat="48.8011" lon="2.24855">
        <ele>186.93</ele>
        <time>2021-04-17T12:01:40.000Z</time>
      </trkpt>
      <trkpt lat="48.801" lon="2.24855">
        <ele>187.09</ele>
        <time>2021-04-17T12:01:48.000Z</time>
      </trkpt>
      <trkpt lat="48.8009" lon="2.2486">
        <ele>187.2</ele>
        <time>2021-04-17T12:01:54.000Z</time>
      </trkpt>
      <trkpt lat="48.80081" lon="2.24865">
        <ele>187.34</ele>
        <time>2021-04-17T12:02:01.000Z</time>
      </trkpt>
      <trkpt lat="48.80071" lon="2.24866">
        <ele>187.66</ele>
        <time>2021-04-17T12:02:16.000Z</time>
      </trkpt>
      <trkpt lat="48.80061" lon="2.24863">
        <ele>187.8</ele>
        <time>2021-04-17T12:02:24.000Z</time>
      </trkpt>
      <trkpt lat="48.80053" lon="2.24872">
        <ele>187.87</ele>
        <time>2021-04-17T12:02:28.000Z</time>
      </trkpt>
      <trkpt lat="48.80043" lon="2.24879">
        <ele>187.93</ele>
        <time>2021-04-17T12:02:30.000Z</time>
      </trkpt>
      <trkpt lat="48.80035" lon="2.2487">
        <ele>188.15</ele>
        <time>2021-04-17T12:02:38.000Z</time>
      </trkpt>
      <trkpt lat="48.80034" lon="2.24855">
        <ele>188.36</ele>
        <time>2021-04-17T12:02:45.000Z</time>
      </trkpt>
      <trkpt lat="48.80032" lon="2.24842">
        <ele>188.7</ele>
        <time>2021-04-17T12:02:54.000Z</time>
      </trkpt>
      <trkpt lat="48.80026" lon="2.24831">
        <ele>189.08</ele>
        <time>2021-04-17T12:03:02.000Z</time>
      </trkpt>
      <trkpt lat="48.80017" lon="2.24824">
        <ele>189.77</ele>
        <time>2021-04-17T12:03:12.000Z</time>
      </trkpt>
      <trkpt lat="48.80008" lon="2.24825">
        <ele>190.48</ele>
        <time>2021-04-17T12:03:21.000Z</time>
      </trkpt>
      <trkpt lat="48.79999" lon="2.24825">
        <ele>191.45</ele>
        <time>2021-04-17T12:03:32.000Z</time>
      </trkpt>
      <trkpt lat="48.79989" lon="2.24828">
        <ele>192.25</ele>
        <time>2021-04-17T12:03:41.000Z</time>
      </trkpt>
      <trkpt lat="48.7998" lon="2.24832">
        <ele>192.9</ele>
        <time>2021-04-17T12:03:49.000Z</time>
      </trkpt>
      <trkpt lat="48.79973" lon="2.24843">
        <ele>193.61</ele>
        <time>2021-04-17T12:03:59.000Z</time>
      </trkpt>
      <trkpt lat="48.79969" lon="2.24856">
        <ele>194.08</ele>
        <time>2021-04-17T12:04:07.000Z</time>
      </trkpt>
      <trkpt lat="48.79963" lon="2.24867">
        <ele>194.63</ele>
        <time>2021-04-17T12:04:17.000Z</time>
      </trkpt>
      <trkpt lat="48.79954" lon="2.24871">
        <ele>194.98</ele>
        <time>2021-04-17T12:04:24.000Z</time>
      </trkpt>
      <trkpt lat="48.79945" lon="2.24874">
        <ele>195.57</ele>
        <time>2021-04-17T12:04:38.000Z</time>
      </trkpt>
      <trkpt lat="48.79935" lon="2.24875">
        <ele>196.15</ele>
        <time>2021-04-17T12:04:55.000Z</time>
      </trkpt>
      <trkpt lat="48.79927" lon="2.24869">
        <ele>196.63</ele>
        <time>2021-04-17T12:05:12.000Z</time>
      </trkpt>
      <trkpt lat="48.79918" lon="2.24871">
        <ele>197.04</ele>
        <time>2021-04-17T12:05:28.000Z</time>
      </trkpt>
      <trkpt lat="48.79909" lon="2.24877">
        <ele>197.16</ele>
        <time>2021-04-17T12:05:33.000Z</time>
      </trkpt>
      <trkpt lat="48.79902" lon="2.24888">
        <ele>197.25</ele>
        <time>2021-04-17T12:05:38.000Z</time>
      </trkpt>
      <trkpt lat="48.79892" lon="2.24886">
        <ele>197.48</ele>
        <time>2021-04-17T12:05:49.000Z</time>
      </trkpt>
      <trkpt lat="48.79883" lon="2.24883">
        <ele>197.58</ele>
        <time>2021-04-17T12:05:54.000Z</time>
      </trkpt>
      <trkpt lat="48.79872" lon="2.24882">
        <ele>197.76</ele>
        <time>2021-04-17T12:06:02.000Z</time>
      </trkpt>
      <trkpt lat="48.79862" lon="2.24886">
        <ele>197.96</ele>
        <time>2021-04-17T12:06:09.000Z</time>
      </trkpt>
      <trkpt lat="48.79853" lon="2.24889">
        <ele>198.14</ele>
        <time>2021-04-17T12:06:16.000Z</time>
      </trkpt>
      <trkpt lat="48.79844" lon="2.24886">
        <ele>198.42</ele>
        <time>2021-04-17T12:06:26.000Z</time>
      </trkpt>
      <trkpt lat="48.79837" lon="2.24897">
        <ele>198.55</ele>
        <time>2021-04-17T12:06:31.000Z</time>
      </trkpt>
      <trkpt lat="48.79827" lon="2.249">
        <ele>198.72</ele>
        <time>2021-04-17T12:06:38.000Z</time>
      </trkpt>
      <trkpt lat="48.79816" lon="2.24898">
        <ele>198.89</ele>
        <time>2021-04-17T12:06:48.000Z</time>
      </trkpt>
      <trkpt lat="48.79806" lon="2.24898">
        <ele>199.08</ele>
        <time>2021-04-17T12:06:57.000Z</time>
      </trkpt>
      <trkpt lat="48.79796" lon="2.24898">
        <ele>199.26</ele>
        <time>2021-04-17T12:07:06.000Z</time>
      </trkpt>
      <trkpt lat="48.79787" lon="2.24905">
        <ele>199.37</ele>
        <time>2021-04-17T12:07:11.000Z</time>
      </trkpt>
      <trkpt lat="48.79778" lon="2.24906">
        <ele>199.62</ele>
        <time>2021-04-17T12:07:24.000Z</time>
      </trkpt>
      <trkpt lat="48.79769" lon="2.24898">
        <ele>199.81</ele>
        <time>2021-04-17T12:07:35.000Z</time>
      </trkpt>
      <trkpt lat="48.79761" lon="2.24893">
        <ele>200.01</ele>
        <time>2021-04-17T12:07:46.000Z</time>
      </trkpt>
      <trkpt lat="48.79752" lon="2.24887">
        <ele>200.32</ele>
        <time>2021-04-17T12:08:02.000Z</time>
      </trkpt>
      <trkpt lat="48.79743" lon="2.24884">
        <ele>200.49</ele>
        <time>2021-04-17T12:08:13.000Z</time>
      </trkpt>
      <trkpt lat="48.79734" lon="2.24879">
        <ele>200.65</ele>
        <time>2021-04-17T12:08:25.000Z</time>
      </trkpt>
      <trkpt lat="48.79725" lon="2.24877">
        <ele>200.87</ele>
        <time>2021-04-17T12:08:44.000Z</time>
      </trkpt>
      <trkpt lat="48.79716" lon="2.24876">
        <ele>200.96</ele>
        <time>2021-04-17T12:08:51.000Z</time>
      </trkpt>
      <trkpt lat="48.79705" lon="2.24877">
        <ele>201.07</ele>
        <time>2021-04-17T12:09:00.000Z</time>
      </trkpt>
      <trkpt lat="48.79695" lon="2.24881">
        <ele>201.16</ele>
        <time>2021-04-17T12:09:08.000Z</time>
      </trkpt>
      <trkpt lat="48.79684" lon="2.24886">
        <ele>201.27</ele>
        <time>2021-04-17T12:09:16.000Z</time>
      </trkpt>
      <trkpt lat="48.79674" lon="2.24892">
        <ele>201.37</ele>
        <time>2021-04-17T12:09:24.000Z</time>
      </trkpt>
      <trkpt lat="48.79664" lon="2.24891">
        <ele>201.51</ele>
        <time>2021-04-17T12:09:35.000Z</time>
      </trkpt>
      <trkpt lat="48.79655" lon="2.24891">
        <ele>201.68</ele>
        <time>2021-04-17T12:09:46.000Z</time>
      </trkpt>
      <trkpt lat="48.79644" lon="2.2489">
        <ele>201.81</ele>
        <time>2021-04-17T12:09:56.000Z</time>
      </trkpt>
      <trkpt lat="48.79635" lon="2.24889">
        <ele>201.89</ele>
        <time>2021-04-17T12:10:04.000Z</time>
      </trkpt>
      <trkpt lat="48.79625" lon="2.24896">
        <ele>201.97</ele>
        <time>2021-04-17T12:10:13.000Z</time>
      </trkpt>
      <trkpt lat="48.79616" lon="2.249">
        <ele>202.03</ele>
        <time>2021-04-17T12:10:20.000Z</time>
      </trkpt>
      <trkpt lat="48.7961" lon="2.24912">
        <ele>202.1</ele>
        <time>2021-04-17T12:10:27.000Z</time>
      </trkpt>
      <trkpt lat="48.79602" lon="2.24925">
        <ele>202.16</ele>
        <time>2021-04-17T12:10:33.000Z</time>
      </trkpt>
      <trkpt lat="48.79612" lon="2.24919">
        <ele>202.41</ele>
        <time>2021-04-17T12:11:01.000Z</time>
      </trkpt>
      <trkpt lat="48.79617" lon="2.24931">
        <ele>202.48</ele>
        <time>2021-04-17T12:11:08.000Z</time>
      </trkpt>
      <trkpt lat="48.79623" lon="2.24943">
        <ele>202.53</ele>
        <time>2021-04-17T12:11:15.000Z</time>
      </trkpt>
      <trkpt lat="48.79628" lon="2.24955">
        <ele>202.59</ele>
        <time>2021-04-17T12:11:26.000Z</time>
      </trkpt>
      <trkpt lat="48.79633" lon="2.24967">
        <ele>202.65</ele>
        <time>2021-04-17T12:11:36.000Z</time>
      </trkpt>
      <trkpt lat="48.79639" lon="2.24979">
        <ele>202.73</ele>
        <time>2021-04-17T12:11:51.000Z</time>
      </trkpt>
      <trkpt lat="48.79645" lon="2.24991">
        <ele>202.76</ele>
        <time>2021-04-17T12:11:58.000Z</time>
      </trkpt>
      <trkpt lat="48.79652" lon="2.25001">
        <ele>202.79</ele>
        <time>2021-04-17T12:12:12.000Z</time>
      </trkpt>
      <trkpt lat="48.79657" lon="2.25012">
        <ele>202.81</ele>
        <time>2021-04-17T12:12:20.000Z</time>
      </trkpt>
      <trkpt lat="48.79664" lon="2.25022">
        <ele>202.84</ele>
        <time>2021-04-17T12:12:31.000Z</time>
      </trkpt>
      <trkpt lat="48.79671" lon="2.25035">
        <ele>202.85</ele>
        <time>2021-04-17T12:12:39.000Z</time>
      </trkpt>
      <trkpt lat="48.79676" lon="2.25047">
        <ele>202.86</ele>
        <time>2021-04-17T12:12:51.000Z</time>
      </trkpt>
      <trkpt lat="48.79682" lon="2.25057">
        <ele>202.87</ele>
        <time>2021-04-17T12:12:58.000Z</time>
      </trkpt>
      <trkpt lat="48.79686" lon="2.2507">
        <ele>202.89</ele>
        <time>2021-04-17T12:13:05.000Z</time>
      </trkpt>
      <trkpt lat="48.79691" lon="2.25083">
        <ele>202.91</ele>
        <time>2021-04-17T12:13:18.000Z</time>
      </trkpt>
      <trkpt lat="48.79696" lon="2.25097">
        <ele>202.93</ele>
        <time>2021-04-17T12:13:28.000Z</time>
      </trkpt>
      <trkpt lat="48.79703" lon="2.25106">
        <ele>202.93</ele>
        <time>2021-04-17T12:13:35.000Z</time>
      </trkpt>
      <trkpt lat="48.7971" lon="2.25116">
        <ele>202.93</ele>
        <time>2021-04-17T12:13:44.000Z</time>
      </trkpt>
      <trkpt lat="48.79715" lon="2.25127">
        <ele>202.94</ele>
        <time>2021-04-17T12:13:53.000Z</time>
      </trkpt>
      <trkpt lat="48.79719" lon="2.2514">
        <ele>202.96</ele>
        <time>2021-04-17T12:14:07.000Z</time>
      </trkpt>
      <trkpt lat="48.79724" lon="2.25154">
        <ele>202.99</ele>
        <time>2021-04-17T12:14:18.000Z</time>
      </trkpt>
      <trkpt lat="48.7973" lon="2.25165">
        <ele>203.02</ele>
        <time>2021-04-17T12:14:29.000Z</time>
      </trkpt>
      <trkpt lat="48.79735" lon="2.25177">
        <ele>203.05</ele>
        <time>2021-04-17T12:14:41.000Z</time>
      </trkpt>
      <trkpt lat="48.79744" lon="2.25181">
        <ele>203.07</ele>
        <time>2021-04-17T12:14:49.000Z</time>
      </trkpt>
      <trkpt lat="48.79752" lon="2.25192">
        <ele>203.1</ele>
        <time>2021-04-17T12:14:55.000Z</time>
      </trkpt>
      <trkpt lat="48.7976" lon="2.252">
        <ele>203.15</ele>
        <time>2021-04-17T12:15:03.000Z</time>
      </trkpt>
      <trkpt lat="48.79767" lon="2.25209">
        <ele>203.21</ele>
        <time>2021-04-17T12:15:11.000Z</time>
      </trkpt>
      <trkpt lat="48.79773" lon="2.2522">
        <ele>203.3</ele>
        <time>2021-04-17T12:15:21.000Z</time>
      </trkpt>
      <trkpt lat="48.79779" lon="2.25231">
        <ele>203.39</ele>
        <time>2021-04-17T12:15:33.000Z</time>
      </trkpt>
      <trkpt lat="48.79777" lon="2.25245">
        <ele>203.5</ele>
        <time>2021-04-17T12:15:45.000Z</time>
      </trkpt>
      <trkpt lat="48.79768" lon="2.25248">
        <ele>203.65</ele>
        <time>2021-04-17T12:15:59.000Z</time>
      </trkpt>
      <trkpt lat="48.79762" lon="2.25258">
        <ele>203.77</ele>
        <time>2021-04-17T12:16:10.000Z</time>
      </trkpt>
      <trkpt lat="48.79755" lon="2.25268">
        <ele>203.95</ele>
        <time>2021-04-17T12:16:28.000Z</time>
      </trkpt>
      <trkpt lat="48.79749" lon="2.25279">
        <ele>204.02</ele>
        <time>2021-04-17T12:16:36.000Z</time>
      </trkpt>
      <trkpt lat="48.7974" lon="2.25282">
        <ele>204.15</ele>
        <time>2021-04-17T12:16:52.000Z</time>
      </trkpt>
      <trkpt lat="48.79736" lon="2.25295">
        <ele>204.97</ele>
        <time>2021-04-17T12:17:51.000Z</time>
      </trkpt>
      <trkpt lat="48.79734" lon="2.25308">
        <ele>205.18</ele>
        <time>2021-04-17T12:17:58.000Z</time>
      </trkpt>
      <trkpt lat="48.79728" lon="2.2532">
        <ele>205.44</ele>
        <time>2021-04-17T12:18:09.000Z</time>
      </trkpt>
      <trkpt lat="48.79718" lon="2.25327">
        <ele>205.64</ele>
        <time>2021-04-17T12:18:19.000Z</time>
      </trkpt>
      <trkpt lat="48.79709" lon="2.25336">
        <ele>205.8</ele>
        <time>2021-04-17T12:18:29.000Z</time>
      </trkpt>
      <trkpt lat="48.79702" lon="2.25344">
        <ele>206.01</ele>
        <time>2021-04-17T12:18:41.000Z</time>
      </trkpt>
      <trkpt lat="48.79694" lon="2.25353">
        <ele>206.13</ele>
        <time>2021-04-17T12:18:48.000Z</time>
      </trkpt>
      <trkpt lat="48.79689" lon="2.25364">
        <ele>206.24</ele>
        <time>2021-04-17T12:18:57.000Z</time>
      </trkpt>
      <trkpt lat="48.79683" lon="2.25375">
        <ele>206.36</ele>
        <time>2021-04-17T12:19:09.000Z</time>
      </trkpt>
      <trkpt lat="48.79675" lon="2.25383">
        <ele>206.44</ele>
        <time>2021-04-17T12:19:16.000Z</time>
      </trkpt>
      <trkpt lat="48.7967" lon="2.25394">
        <ele>206.52</ele>
        <time>2021-04-17T12:19:23.000Z</time>
      </trkpt>
      <trkpt lat="48.79664" lon="2.25406">
        <ele>206.64</ele>
        <time>2021-04-17T12:19:34.000Z</time>
      </trkpt>
      <trkpt lat="48.79659" lon="2.25419">
        <ele>206.75</ele>
        <time>2021-04-17T12:19:42.000Z</time>
      </trkpt>
      <trkpt lat="48.79652" lon="2.25428">
        <ele>206.87</ele>
        <time>2021-04-17T12:19:49.000Z</time>
      </trkpt>
      <trkpt lat="48.79645" lon="2.25436">
        <ele>207.09</ele>
        <time>2021-04-17T12:20:00.000Z</time>
      </trkpt>
      <trkpt lat="48.79638" lon="2.25447">
        <ele>207.24</ele>
        <time>2021-04-17T12:20:07.000Z</time>
      </trkpt>
      <trkpt lat="48.79629" lon="2.25455">
        <ele>207.39</ele>
        <time>2021-04-17T12:20:14.000Z</time>
      </trkpt>
      <trkpt lat="48.79623" lon="2.25467">
        <ele>207.93</ele>
        <time>2021-04-17T12:20:38.000Z</time>
      </trkpt>
      <trkpt lat="48.79615" lon="2.25474">
        <ele>208.17</ele>
        <time>2021-04-17T12:20:50.000Z</time>
      </trkpt>
      <trkpt lat="48.79605" lon="2.2548">
        <ele>208.28</ele>
        <time>2021-04-17T12:20:55.000Z</time>
      </trkpt>
      <trkpt lat="48.79597" lon="2.25487">
        <ele>208.39</ele>
        <time>2021-04-17T12:21:00.000Z</time>
      </trkpt>
      <trkpt lat="48.79589" lon="2.25495">
        <ele>208.55</ele>
        <time>2021-04-17T12:21:08.000Z</time>
      </trkpt>
      <trkpt lat="48.79585" lon="2.25508">
        <ele>208.64</ele>
        <time>2021-04-17T12:21:13.000Z</time>
      </trkpt>
      <trkpt lat="48.79581" lon="2.25521">
        <ele>208.74</ele>
        <time>2021-04-17T12:21:18.999Z</time>
      </trkpt>
      <trkpt lat="48.79573" lon="2.25529">
        <ele>208.87</ele>
        <time>2021-04-17T12:21:26.999Z</time>
      </trkpt>
      <trkpt lat="48.79568" lon="2.2554">
        <ele>209.04</ele>
        <time>2021-04-17T12:21:37.999Z</time>
      </trkpt>
      <trkpt lat="48.79563" lon="2.25555">
        <ele>209.3</ele>
        <time>2021-04-17T12:21:52.999Z</time>
      </trkpt>
      <trkpt lat="48.79559" lon="2.25568">
        <ele>209.51</ele>
        <time>2021-04-17T12:22:01.999Z</time>
      </trkpt>
      <trkpt lat="48.79553" lon="2.25579">
        <ele>209.72</ele>
        <time>2021-04-17T12:22:11.999Z</time>
      </trkpt>
      <trkpt lat="48.79548" lon="2.25595">
        <ele>209.88</ele>
        <time>2021-04-17T12:22:20.999Z</time>
      </trkpt>
      <trkpt lat="48.7954" lon="2.25604">
        <ele>210.04</ele>
        <time>2021-04-17T12:22:30.999Z</time>
      </trkpt>
      <trkpt lat="48.79531" lon="2.25611">
        <ele>210.18</ele>
        <time>2021-04-17T12:22:41.999Z</time>
      </trkpt>
      <trkpt lat="48.79527" lon="2.25623">
        <ele>210.29</ele>
        <time>2021-04-17T12:22:50.999Z</time>
      </trkpt>
      <trkpt lat="48.7952" lon="2.25635">
        <ele>210.35</ele>
        <time>2021-04-17T12:22:56.999Z</time>
      </trkpt>
      <trkpt lat="48.79515" lon="2.25649">
        <ele>210.42</ele>
        <time>2021-04-17T12:23:04.999Z</time>
      </trkpt>
      <trkpt lat="48.79509" lon="2.25661">
        <ele>210.47</ele>
        <time>2021-04-17T12:23:09.999Z</time>
      </trkpt>
      <trkpt lat="48.79505" lon="2.25675">
        <ele>210.54</ele>
        <time>2021-04-17T12:23:17.999Z</time>
      </trkpt>
      <trkpt lat="48.79501" lon="2.25689">
        <ele>210.63</ele>
        <time>2021-04-17T12:23:27.999Z</time>
      </trkpt>
      <trkpt lat="48.795" lon="2.25703">
        <ele>210.73</ele>
        <time>2021-04-17T12:23:39.999Z</time>
      </trkpt>
      <trkpt lat="48.79497" lon="2.25717">
        <ele>210.8</ele>
        <time>2021-04-17T12:23:48.999Z</time>
      </trkpt>
      <trkpt lat="48.79493" lon="2.25729">
        <ele>210.87</ele>
        <time>2021-04-17T12:23:56.999Z</time>
      </trkpt>
      <trkpt lat="48.79491" lon="2.25744">
        <ele>210.92</ele>
        <time>2021-04-17T12:24:05.999Z</time>
      </trkpt>
      <trkpt lat="48.79489" lon="2.25759">
        <ele>210.96</ele>
        <time>2021-04-17T12:24:14.999Z</time>
      </trkpt>
      <trkpt lat="48.79489" lon="2.25773">
        <ele>211.02</ele>
        <time>2021-04-17T12:24:30.999Z</time>
      </trkpt>
      <trkpt lat="48.79484" lon="2.25785">
        <ele>211.05</ele>
        <time>2021-04-17T12:24:40.999Z</time>
      </trkpt>
      <trkpt lat="48.7948" lon="2.25798">
        <ele>211.07</ele>
        <time>2021-04-17T12:24:47.999Z</time>
      </trkpt>
      <trkpt lat="48.79476" lon="2.2581">
        <ele>211.08</ele>
        <time>2021-04-17T12:25:02.999Z</time>
      </trkpt>
      <trkpt lat="48.79473" lon="2.25823">
        <ele>211.05</ele>
        <time>2021-04-17T12:25:11.999Z</time>
      </trkpt>
      <trkpt lat="48.7947" lon="2.25836">
        <ele>211.02</ele>
        <time>2021-04-17T12:25:21.999Z</time>
      </trkpt>
      <trkpt lat="48.7947" lon="2.25852">
        <ele>210.98</ele>
        <time>2021-04-17T12:25:31.999Z</time>
      </trkpt>
      <trkpt lat="48.79464" lon="2.25866">
        <ele>210.94</ele>
        <time>2021-04-17T12:25:42.999Z</time>
      </trkpt>
      <trkpt lat="48.79461" lon="2.25879">
        <ele>210.91</ele>
        <time>2021-04-17T12:25:48.999Z</time>
      </trkpt>
      <trkpt lat="48.79454" lon="2.25891">
        <ele>210.89</ele>
        <time>2021-04-17T12:25:54.999Z</time>
      </trkpt>
      <trkpt lat="48.79449" lon="2.25904">
        <ele>210.87</ele>
        <time>2021-04-17T12:26:01.999Z</time>
      </trkpt>
      <trkpt lat="48.79442" lon="2.25914">
        <ele>210.86</ele>
        <time>2021-04-17T12:26:10.999Z</time>
      </trkpt>
      <trkpt lat="48.79442" lon="2.25928">
        <ele>210.83</ele>
        <time>2021-04-17T12:26:25.999Z</time>
      </trkpt>
      <trkpt lat="48.79438" lon="2.25941">
        <ele>210.83</ele>
        <time>2021-04-17T12:26:36.999Z</time>
      </trkpt>
      <trkpt lat="48.79434" lon="2.25955">
        <ele>210.84</ele>
        <time>2021-04-17T12:26:48.999Z</time>
      </trkpt>
      <trkpt lat="48.7943" lon="2.25969">
        <ele>210.84</ele>
        <time>2021-04-17T12:26:59.999Z</time>
      </trkpt>
      <trkpt lat="48.79422" lon="2.25977">
        <ele>210.84</ele>
        <time>2021-04-17T12:27:04.999Z</time>
      </trkpt>
      <trkpt lat="48.79413" lon="2.25983">
        <ele>210.85</ele>
        <time>2021-04-17T12:27:16.999Z</time>
      </trkpt>
      <trkpt lat="48.79404" lon="2.25987">
        <ele>210.87</ele>
        <time>2021-04-17T12:27:28.999Z</time>
      </trkpt>
      <trkpt lat="48.79394" lon="2.2599">
        <ele>210.87</ele>
        <time>2021-04-17T12:27:35.999Z</time>
      </trkpt>
      <trkpt lat="48.79388" lon="2.26">
        <ele>210.87</ele>
        <time>2021-04-17T12:27:42.999Z</time>
      </trkpt>
      <trkpt lat="48.79383" lon="2.26016">
        <ele>210.87</ele>
        <time>2021-04-17T12:27:56.999Z</time>
      </trkpt>
      <trkpt lat="48.79378" lon="2.26029">
        <ele>210.87</ele>
        <time>2021-04-17T12:28:04.999Z</time>
      </trkpt>
      <trkpt lat="48.79379" lon="2.26044">
        <ele>210.88</ele>
        <time>2021-04-17T12:28:11.999Z</time>
      </trkpt>
      <trkpt lat="48.7938" lon="2.26058">
        <ele>210.9</ele>
        <time>2021-04-17T12:28:21.999Z</time>
      </trkpt>
      <trkpt lat="48.79383" lon="2.26072">
        <ele>210.93</ele>
        <time>2021-04-17T12:28:31.999Z</time>
      </trkpt>
    </trkseg>
  </trk>
</gpx>